UA4323 / N14188 7700 Squawk Report (25th of May, 2022)

Aircraft E145 Reg No. N14188 Age N/A
Model ERJ-145 Jet engines 2 First flight 07-05
Registered 29-09-20 Rollout 06-05 Delivered 20-07-05
Construction No. 14500929 Line No. N/A Series XR
ADSHEX A0A9F8 Airline name United Express Owner CommutAir
Airfield based Newark-Liberty International~NJ~N First tracked N/A

Flight history for N14188

Route Flight No Date Playback
Baton Rouge Metropolitan (BTR) - George Bush Intercontinental (IAH) UA4816 2022-06-28 12:36:00
George Bush Intercontinental (IAH) - Baton Rouge Metropolitan (BTR) UA4888 2022-06-28 12:18:00
Memphis Intl (MEM) - George Bush Intercontinental (IAH) UA4374 2022-06-28 00:27:00
George Bush Intercontinental (IAH) - Memphis Intl (MEM) UA4369 2022-06-27 22:07:00
Lafayette Rgnl (LFT) - George Bush Intercontinental (IAH) UA4812 2022-06-27 18:06:00
George Bush Intercontinental (IAH) - Lafayette Rgnl (LFT) UA4371 2022-06-27 15:59:00
NW Arkansas Regional (XNA) - George Bush Intercontinental (IAH) UA4365 2022-06-27 13:48:00
Denver Intl (DEN) - NW Arkansas Regional (XNA) UA4342 2022-06-27 01:11:00
El Paso Intl (ELP) - Denver Intl (DEN) UA4276 2022-06-26 22:02:00
Denver Intl (DEN) - El Paso Intl (ELP) UA4261 2022-06-26 20:20:00
NW Arkansas Regional (XNA) - Denver Intl (DEN) UA4949 2022-06-26 16:29:00
Denver Intl (DEN) - NW Arkansas Regional (XNA) UA4342 2022-06-26 01:58:00
Midland Intl (MAF) - Denver Intl (DEN) UA4345 2022-06-25 22:23:00
Denver Intl (DEN) - Midland Intl (MAF) UA4277 2022-06-25 20:59:00
Lincoln (LNK) - Denver Intl (DEN) UA4878 2022-06-25 17:45:00
Denver Intl (DEN) - Lincoln (LNK) UA4251 2022-06-22 03:33:00
Springfield Branson Natl (SGF) - Denver Intl (DEN) UA4955 2022-06-21 23:55:00
George Bush Intercontinental (IAH) - Springfield Branson Natl (SGF) UA4911 2022-06-21 20:41:00
Lafayette Rgnl (LFT) - George Bush Intercontinental (IAH) UA4812 2022-06-21 18:04:00
George Bush Intercontinental (IAH) - Lafayette Rgnl (LFT) UA4371 2022-06-21 15:49:00
Time Lat Lon Altitude Heading Speed Vertical Rate
2022-05-25 23:30:03 GMT 39.858479 -104.665588 0 266 14 -32
2022-05-25 23:30:02 GMT 39.858490 -104.665421 0 266 14 -32
2022-05-25 23:30:00 GMT 39.858490 -104.665489 0 263 17 -32
2022-05-25 23:29:59 GMT 39.858479 -104.665421 0 258 16 -32
2022-05-25 23:29:57 GMT 39.858490 -104.665230 0 245 14 -32
2022-05-25 23:29:56 GMT 39.858509 -104.665154 0 234 14 -32
2022-05-25 23:29:55 GMT 39.858501 -104.664948 0 187 10 -32
2022-05-25 23:29:53 GMT 39.858551 -104.664871 0 170 12 -32
2022-05-25 23:29:52 GMT 39.858608 -104.664818 0 168 11 -32
2022-05-25 23:29:51 GMT 39.858719 -104.664902 0 177 12 -32
2022-05-25 23:29:49 GMT 39.858780 -104.664902 0 177 12 -32
2022-05-25 23:29:48 GMT 39.858829 -104.664917 0 181 13 -32
2022-05-25 23:29:46 GMT 39.858929 -104.664940 0 186 15 -32
2022-05-25 23:29:45 GMT 39.859009 -104.664932 0 188 14 -32
2022-05-25 23:29:44 GMT 39.859058 -104.664909 0 186 14 -32
2022-05-25 23:29:43 GMT 39.859161 -104.664902 0 179 10 -32
2022-05-25 23:29:41 GMT 39.859230 -104.664879 0 181 13 -32
2022-05-25 23:29:40 GMT 39.859291 -104.664902 0 181 12 -32
2022-05-25 23:29:38 GMT 39.859421 -104.664909 0 180 11 -32
2022-05-25 23:29:37 GMT 39.859489 -104.664848 0 169 10 -32
2022-05-25 23:29:35 GMT 39.859581 -104.664879 0 168 8 -32
2022-05-25 23:29:34 GMT 39.859589 -104.664909 0 168 12 -32
2022-05-25 23:29:32 GMT 39.859699 -104.664909 0 154 11 -32
2022-05-25 23:29:31 GMT 39.859730 -104.664917 0 161 12 -32
2022-05-25 23:29:30 GMT 39.859829 -104.664978 0 174 11 -32
2022-05-25 23:29:28 GMT 39.859871 -104.665009 0 180 11 -32
2022-05-25 23:29:26 GMT 39.859970 -104.664978 0 195 10 -32
2022-05-25 23:29:25 GMT 39.860008 -104.664970 0 207 9 -32
2022-05-25 23:29:24 GMT 39.860062 -104.664978 0 225 8 -32
2022-05-25 23:29:22 GMT 39.860142 -104.664932 0 260 8 -32
2022-05-25 23:29:21 GMT 39.860149 -104.664871 0 264 7 -32
2022-05-25 23:29:20 GMT 39.860168 -104.664803 0 273 11 -32
2022-05-25 23:29:18 GMT 39.860180 -104.664726 0 272 12 -32
2022-05-25 23:29:17 GMT 39.860161 -104.664711 0 268 15 -32
2022-05-25 23:29:15 GMT 39.860168 -104.664543 0 276 17 -32
2022-05-25 23:29:13 GMT 39.860168 -104.664360 0 274 19 -32
2022-05-25 23:29:12 GMT 39.860180 -104.664268 0 269 19 -32
2022-05-25 23:29:11 GMT 39.860180 -104.664162 0 263 19 -32
2022-05-25 23:29:09 GMT 39.860161 -104.663902 0 230 16 -32
2022-05-25 23:29:08 GMT 39.860199 -104.663834 0 222 16 -32
2022-05-25 23:29:07 GMT 39.860222 -104.663750 0 208 18 -32
2022-05-25 23:29:06 GMT 39.860352 -104.663589 0 191 19 -32
2022-05-25 23:29:04 GMT 39.860432 -104.663567 0 190 21 -32
2022-05-25 23:29:02 GMT 39.860611 -104.663528 0 190 24 -32
2022-05-25 23:29:01 GMT 39.860710 -104.663483 0 185 24 -32
2022-05-25 23:29:00 GMT 39.860920 -104.663422 0 176 26 -32
2022-05-25 23:28:58 GMT 39.861061 -104.663452 0 180 23 -32
2022-05-25 23:28:57 GMT 39.861279 -104.663391 0 172 23 -32
2022-05-25 23:28:55 GMT 39.861370 -104.663429 0 176 24 -32
2022-05-25 23:28:54 GMT 39.861591 -104.663467 0 183 26 -32
2022-05-25 23:28:52 GMT 39.861729 -104.663422 0 176 24 -32
2022-05-25 23:28:51 GMT 39.861851 -104.663490 0 190 23 -32
2022-05-25 23:28:50 GMT 39.862041 -104.663406 0 180 25 -32
2022-05-25 23:28:48 GMT 39.862171 -104.663406 0 181 23 -32
2022-05-25 23:28:46 GMT 39.862370 -104.663383 0 174 24 -32
2022-05-25 23:28:45 GMT 39.862511 -104.663368 0 171 21 -32
2022-05-25 23:28:44 GMT 39.862701 -104.663429 0 179 22 -32
2022-05-25 23:28:42 GMT 39.862820 -104.663422 0 175 21 -32
2022-05-25 23:28:41 GMT 39.863010 -104.663467 0 184 23 -32
2022-05-25 23:28:39 GMT 39.863140 -104.663467 0 187 21 -32
2022-05-25 23:28:38 GMT 39.863239 -104.663406 0 177 20 -32
2022-05-25 23:28:36 GMT 39.863411 -104.663422 0 177 23 -32
2022-05-25 23:28:35 GMT 39.863522 -104.663452 0 180 22 -32
2022-05-25 23:28:33 GMT 39.863739 -104.663437 0 178 21 -32
2022-05-25 23:28:32 GMT 39.863850 -104.663452 0 177 19 -32
2022-05-25 23:28:31 GMT 39.864021 -104.663429 0 171 22 -32
2022-05-25 23:28:29 GMT 39.864101 -104.663406 0 171 24 -32
2022-05-25 23:28:28 GMT 39.864201 -104.663406 0 173 23 -32
2022-05-25 23:28:27 GMT 39.864410 -104.663460 0 190 21 -32
2022-05-25 23:28:25 GMT 39.864491 -104.663498 0 205 23 -32
2022-05-25 23:28:24 GMT 39.864689 -104.663437 0 228 23 -32
2022-05-25 23:28:22 GMT 39.864799 -104.663338 0 240 20 -32
2022-05-25 23:28:21 GMT 39.864910 -104.663177 0 253 23 -32
2022-05-25 23:28:19 GMT 39.864990 -104.663071 0 266 24 -32
2022-05-25 23:28:18 GMT 39.865021 -104.662933 0 274 23 -32
2022-05-25 23:28:16 GMT 39.865002 -104.662651 0 269 25 -32
2022-05-25 23:28:15 GMT 39.865021 -104.662514 0 274 25 -32
2022-05-25 23:28:13 GMT 39.864990 -104.662193 0 271 23 -32
2022-05-25 23:28:12 GMT 39.865009 -104.662064 0 273 24 -32
2022-05-25 23:28:11 GMT 39.864979 -104.661903 0 269 23 -32
2022-05-25 23:28:10 GMT 39.864979 -104.661613 0 270 20 -32
2022-05-25 23:28:08 GMT 39.864990 -104.661499 0 272 22 -32
2022-05-25 23:28:07 GMT 39.864990 -104.661247 0 272 23 -32
2022-05-25 23:28:05 GMT 39.864971 -104.661110 0 267 21 -32
2022-05-25 23:28:04 GMT 39.864971 -104.660988 0 267 22 -32
2022-05-25 23:28:03 GMT 39.864979 -104.660690 0 266 17 -32
2022-05-25 23:28:01 GMT 39.864990 -104.660629 0 270 22 -32
2022-05-25 23:28:00 GMT 39.864990 -104.660477 0 272 20 -32
2022-05-25 23:27:59 GMT 39.864960 -104.660233 0 260 21 -32
2022-05-25 23:27:57 GMT 39.865009 -104.660088 0 273 19 -32
2022-05-25 23:27:56 GMT 39.865009 -104.659882 0 276 22 -32
2022-05-25 23:27:54 GMT 39.864979 -104.659630 0 268 22 -32
2022-05-25 23:27:52 GMT 39.864990 -104.659492 0 269 22 -32
2022-05-25 23:27:51 GMT 39.864990 -104.659332 0 272 20 -32
2022-05-25 23:27:49 GMT 39.864979 -104.659081 0 269 20 -32
2022-05-25 23:27:48 GMT 39.864979 -104.658951 0 270 19 -32
2022-05-25 23:27:47 GMT 39.864971 -104.658852 0 267 21 -32
2022-05-25 23:27:46 GMT 39.864990 -104.658623 0 274 24 -32
2022-05-25 23:27:44 GMT 39.864960 -104.658478 0 267 25 -32
2022-05-25 23:27:43 GMT 39.864971 -104.658310 0 270 23 -32
2022-05-25 23:27:42 GMT 39.864948 -104.658043 0 264 26 -32
2022-05-25 23:27:40 GMT 39.864979 -104.657883 0 270 25 -32
2022-05-25 23:27:39 GMT 39.864971 -104.657547 0 269 20 -32
2022-05-25 23:27:37 GMT 39.864971 -104.657463 0 269 24 -32
2022-05-25 23:27:36 GMT 39.864979 -104.657310 0 272 23 -32
2022-05-25 23:27:34 GMT 39.864979 -104.657043 0 272 27 -32
2022-05-25 23:27:33 GMT 39.864971 -104.656891 0 271 28 -32
2022-05-25 23:27:32 GMT 39.864948 -104.656693 0 269 27 -32
2022-05-25 23:27:30 GMT 39.864960 -104.656380 0 271 27 -32
2022-05-25 23:27:29 GMT 39.864960 -104.656212 0 272 26 -32
2022-05-25 23:27:28 GMT 39.864948 -104.655907 0 272 28 -32
2022-05-25 23:27:26 GMT 39.864929 -104.655724 0 267 26 -32
2022-05-25 23:27:25 GMT 39.864941 -104.655563 0 270 25 -32
2022-05-25 23:27:24 GMT 39.864941 -104.655296 0 270 28 -32
2022-05-25 23:27:22 GMT 39.864941 -104.655144 0 270 29 -32
2022-05-25 23:27:21 GMT 39.864948 -104.654961 0 273 28 -32
2022-05-25 23:27:19 GMT 39.864922 -104.654610 0 268 26 -32
2022-05-25 23:27:18 GMT 39.864929 -104.654449 0 270 26 -32
2022-05-25 23:27:17 GMT 39.864929 -104.654320 0 270 27 -32
2022-05-25 23:27:16 GMT 39.864922 -104.654007 0 270 29 -32
2022-05-25 23:27:14 GMT 39.864922 -104.653816 0 267 28 -32
2022-05-25 23:27:13 GMT 39.864941 -104.653641 0 271 27 -32
2022-05-25 23:27:12 GMT 39.864941 -104.653320 0 271 26 -32
2022-05-25 23:27:10 GMT 39.864941 -104.653152 0 271 26 -32
2022-05-25 23:27:09 GMT 39.864922 -104.653008 0 268 26 -32
2022-05-25 23:27:07 GMT 39.864941 -104.652687 0 273 27 -32
2022-05-25 23:27:06 GMT 39.864929 -104.652519 0 273 26 -32
2022-05-25 23:27:04 GMT 39.864910 -104.652222 0 270 28 -32
2022-05-25 23:27:03 GMT 39.864922 -104.652039 0 273 26 -32
2022-05-25 23:27:02 GMT 39.864899 -104.651901 0 269 27 -32
2022-05-25 23:27:00 GMT 39.864899 -104.651573 0 269 26 -32
2022-05-25 23:26:58 GMT 39.864899 -104.651237 0 270 23 -32
2022-05-25 23:26:57 GMT 39.864899 -104.651100 0 268 23 -32
2022-05-25 23:26:56 GMT 39.864922 -104.650818 0 272 22 -32
2022-05-25 23:26:54 GMT 39.864899 -104.650681 0 270 22 -32
2022-05-25 23:26:53 GMT 39.864891 -104.650414 0 266 21 -32
2022-05-25 23:26:51 GMT 39.864899 -104.650291 0 268 21 -32
2022-05-25 23:26:49 GMT 39.864880 -104.650040 0 258 21 -32
2022-05-25 23:26:48 GMT 39.864880 -104.649933 0 257 22 -32
2022-05-25 23:26:47 GMT 39.864910 -104.649696 0 264 24 -32
2022-05-25 23:26:45 GMT 39.864922 -104.649567 0 269 23 -32
2022-05-25 23:26:44 GMT 39.864948 -104.649422 0 281 21 -32
2022-05-25 23:26:42 GMT 39.864941 -104.649162 0 298 21 -32
2022-05-25 23:26:41 GMT 39.864922 -104.649033 0 309 22 -32
2022-05-25 23:26:39 GMT 39.864819 -104.648788 0 320 22 -32
2022-05-25 23:26:38 GMT 39.864750 -104.648697 0 324 23 -32
2022-05-25 23:26:36 GMT 39.864590 -104.648529 0 330 24 -32
2022-05-25 23:26:35 GMT 39.864498 -104.648468 0 330 25 -32
2022-05-25 23:26:33 GMT 39.864288 -104.648323 0 330 24 -32
2022-05-25 23:26:32 GMT 39.864182 -104.648239 0 330 23 -32
2022-05-25 23:26:31 GMT 39.864101 -104.648170 0 332 25 -32
2022-05-25 23:26:30 GMT 39.863911 -104.648048 0 331 27 -32
2022-05-25 23:26:28 GMT 39.863789 -104.647987 0 328 27 -32
2022-05-25 23:26:27 GMT 39.863670 -104.647903 0 328 24 -32
2022-05-25 23:26:26 GMT 39.863491 -104.647743 0 331 24 -32
2022-05-25 23:26:24 GMT 39.863392 -104.647682 0 329 24 -32
2022-05-25 23:26:22 GMT 39.863209 -104.647530 0 332 26 -32
2022-05-25 23:26:21 GMT 39.863098 -104.647461 0 331 26 -32
2022-05-25 23:26:20 GMT 39.862980 -104.647392 0 329 25 -32
2022-05-25 23:26:19 GMT 39.862770 -104.647263 0 327 25 -32
2022-05-25 23:26:18 GMT 39.862679 -104.647186 0 327 25 -32
2022-05-25 23:26:16 GMT 39.862579 -104.647110 0 327 26 -32
2022-05-25 23:26:14 GMT 39.862389 -104.646927 0 331 26 -32
2022-05-25 23:26:13 GMT 39.862282 -104.646873 0 328 26 -32
2022-05-25 23:26:12 GMT 39.862068 -104.646721 0 326 26 -32
2022-05-25 23:26:10 GMT 39.861969 -104.646629 0 328 25 -32
2022-05-25 23:26:09 GMT 39.861858 -104.646553 0 328 25 -32
2022-05-25 23:26:07 GMT 39.861671 -104.646393 0 330 26 -32
2022-05-25 23:26:06 GMT 39.861561 -104.646317 0 329 26 -32
2022-05-25 23:26:05 GMT 39.861351 -104.646172 0 327 26 -32
2022-05-25 23:26:03 GMT 39.861259 -104.646080 0 328 27 -32
2022-05-25 23:26:02 GMT 39.861160 -104.645988 0 330 27 -32
2022-05-25 23:26:00 GMT 39.860920 -104.645813 0 335 23 -32
2022-05-25 23:25:59 GMT 39.860828 -104.645767 0 333 24 -32
2022-05-25 23:25:58 GMT 39.860641 -104.645660 0 329 27 -32
2022-05-25 23:25:56 GMT 39.860531 -104.645569 0 329 26 -32
2022-05-25 23:25:55 GMT 39.860420 -104.645500 0 328 26 -32
2022-05-25 23:25:53 GMT 39.860210 -104.645332 0 329 27 -32
2022-05-25 23:25:52 GMT 39.860119 -104.645241 0 331 26 -32
2022-05-25 23:25:50 GMT 39.859901 -104.645081 0 332 24 -32
2022-05-25 23:25:49 GMT 39.859810 -104.645027 0 330 26 -32
2022-05-25 23:25:48 GMT 39.859711 -104.644951 0 331 26 -32
2022-05-25 23:25:46 GMT 39.859501 -104.644798 0 330 27 -32
2022-05-25 23:25:45 GMT 39.859379 -104.644699 0 330 25 -32
2022-05-25 23:25:44 GMT 39.859180 -104.644569 0 331 26 -32
2022-05-25 23:25:42 GMT 39.859058 -104.644493 0 330 25 -32
2022-05-25 23:25:41 GMT 39.858871 -104.644348 0 330 27 -32
2022-05-25 23:25:39 GMT 39.858768 -104.644272 0 331 28 -32
2022-05-25 23:25:38 GMT 39.858639 -104.644211 0 325 27 -32
2022-05-25 23:25:37 GMT 39.858421 -104.644028 0 327 25 -32
2022-05-25 23:25:35 GMT 39.858330 -104.643967 0 329 27 -32
2022-05-25 23:25:34 GMT 39.858238 -104.643860 0 336 27 -32
2022-05-25 23:25:32 GMT 39.858021 -104.643692 0 349 26 -32
2022-05-25 23:25:31 GMT 39.857922 -104.643639 0 352 27 -32
2022-05-25 23:25:29 GMT 39.857670 -104.643593 0 353 26 -32
2022-05-25 23:25:27 GMT 39.857422 -104.643532 0 0 25 -32
2022-05-25 23:25:26 GMT 39.857201 -104.643517 0 1 25 -32
2022-05-25 23:25:25 GMT 39.857079 -104.643562 0 354 25 -32
2022-05-25 23:25:23 GMT 39.856991 -104.643517 0 0 29 -32
2022-05-25 23:25:22 GMT 39.856838 -104.643539 0 356 26 -32
2022-05-25 23:25:20 GMT 39.856602 -104.643471 0 8 26 -32
2022-05-25 23:25:19 GMT 39.856468 -104.643517 0 2 25 -32
2022-05-25 23:25:18 GMT 39.856239 -104.643517 0 3 24 -32
2022-05-25 23:25:16 GMT 39.856129 -104.643532 0 2 24 -32
2022-05-25 23:25:15 GMT 39.856022 -104.643547 0 1 24 -32
2022-05-25 23:25:13 GMT 39.855801 -104.643539 0 3 25 -32
2022-05-25 23:25:12 GMT 39.855679 -104.643570 0 358 25 -32
2022-05-25 23:25:11 GMT 39.855549 -104.643562 0 0 24 -32
2022-05-25 23:25:10 GMT 39.855431 -104.643547 0 1 22 -32
2022-05-25 23:25:08 GMT 39.855221 -104.643539 0 4 21 -32
2022-05-25 23:25:07 GMT 39.855122 -104.643539 0 8 21 -32
2022-05-25 23:25:05 GMT 39.854939 -104.643608 0 353 22 -32
2022-05-25 23:25:04 GMT 39.854839 -104.643593 0 355 21 -32
2022-05-25 23:25:03 GMT 39.854641 -104.643578 0 351 21 -32
2022-05-25 23:25:01 GMT 39.854530 -104.643562 0 353 19 -32
2022-05-25 23:25:00 GMT 39.854450 -104.643509 0 3 20 -32
2022-05-25 23:24:59 GMT 39.854279 -104.643532 0 358 20 -32
2022-05-25 23:24:57 GMT 39.854179 -104.643539 0 354 18 -32
2022-05-25 23:24:56 GMT 39.854069 -104.643532 0 350 16 -32
2022-05-25 23:24:55 GMT 39.853931 -104.643532 0 339 18 -32
2022-05-25 23:24:53 GMT 39.853840 -104.643517 0 333 18 -32
2022-05-25 23:24:52 GMT 39.853760 -104.643471 0 332 18 -32
2022-05-25 23:24:51 GMT 39.853699 -104.643417 0 334 17 -32
2022-05-25 23:24:49 GMT 39.853550 -104.643333 0 332 16 -32
2022-05-25 23:24:48 GMT 39.853489 -104.643288 0 332 18 -32
2022-05-25 23:24:46 GMT 39.853329 -104.643188 0 331 16 -32
2022-05-25 23:24:45 GMT 39.853271 -104.643143 0 333 15 -32
2022-05-25 23:24:44 GMT 39.853199 -104.643112 0 326 15 -32
2022-05-25 23:24:43 GMT 39.853069 -104.643013 0 324 13 -32
2022-05-25 23:24:41 GMT 39.853008 -104.642967 0 323 14 -32
2022-05-25 23:24:40 GMT 39.852959 -104.642937 0 321 17 -32
2022-05-25 23:24:38 GMT 39.852840 -104.642830 0 324 21 -32
2022-05-25 23:24:37 GMT 39.852772 -104.642754 0 326 22 -32
2022-05-25 23:24:35 GMT 39.852589 -104.642639 0 326 27 -32
2022-05-25 23:24:34 GMT 39.852489 -104.642540 0 329 27 -32
2022-05-25 23:24:32 GMT 39.852268 -104.642403 0 332 31 -32
2022-05-25 23:24:30 GMT 39.852009 -104.642212 0 337 33 -32
2022-05-25 23:24:28 GMT 39.851730 -104.642082 0 339 36 -32
2022-05-25 23:24:26 GMT 39.851421 -104.641937 0 342 39 -32
2022-05-25 23:24:24 GMT 39.851089 -104.641792 0 348 44 -32
2022-05-25 23:24:23 GMT 39.850880 -104.641708 0 352 43 -32
2022-05-25 23:24:22 GMT 39.850471 -104.641640 0 354 46 -32
2022-05-25 23:24:20 GMT 39.850250 -104.641609 0 356 47 -32
2022-05-25 23:24:19 GMT 39.849781 -104.641579 0 357 51 64
2022-05-25 23:24:17 GMT 39.849548 -104.641541 0 359 54 64
2022-05-25 23:24:16 GMT 39.849289 -104.641518 0 1 56 -608
2022-05-25 23:24:14 GMT 39.848751 -104.641533 0 1 62 -608
2022-05-25 23:24:13 GMT 39.848179 -104.641548 0 0 73 -608
2022-05-25 23:24:11 GMT 39.847809 -104.641579 0 358 74 -608
2022-05-25 23:24:10 GMT 39.847462 -104.641579 0 358 77 -608
2022-05-25 23:24:09 GMT 39.846741 -104.641533 0 0 87 -608
2022-05-25 23:24:07 GMT 39.846352 -104.641548 5,300 0 93 -608
2022-05-25 23:24:06 GMT 39.845921 -104.641563 5,300 0 98 -608
2022-05-25 23:24:04 GMT 39.845009 -104.641571 5,300 0 110 -608
2022-05-25 23:24:03 GMT 39.844528 -104.641541 5,325 1 117 -608
2022-05-25 23:24:02 GMT 39.843479 -104.641563 5,325 1 130 -608
2022-05-25 23:24:00 GMT 39.842911 -104.641586 5,325 0 136 -608
2022-05-25 23:23:59 GMT 39.841740 -104.641617 5,350 0 149 32
2022-05-25 23:23:57 GMT 39.841068 -104.641632 5,350 0 152 32
2022-05-25 23:23:56 GMT 39.840389 -104.641640 5,350 0 154 32
2022-05-25 23:23:55 GMT 39.839680 -104.641640 5,325 0 156 32
2022-05-25 23:23:54 GMT 39.838970 -104.641640 5,300 0 157 32
2022-05-25 23:23:52 GMT 39.837528 -104.641647 5,300 0 159 32
2022-05-25 23:23:51 GMT 39.836800 -104.641678 5,300 0 161 32
2022-05-25 23:23:49 GMT 39.835300 -104.641663 5,300 1 160 -960
2022-05-25 23:23:48 GMT 39.834579 -104.641678 5,300 1 163 -960
2022-05-25 23:23:46 GMT 39.833061 -104.641747 5,375 359 160 -960
2022-05-25 23:23:45 GMT 39.832340 -104.641701 5,375 1 165 -960
2022-05-25 23:23:44 GMT 39.830791 -104.641708 5,400 0 159 -960
2022-05-25 23:23:42 GMT 39.830051 -104.641739 5,400 358 159 -960
2022-05-25 23:23:41 GMT 39.828560 -104.641708 5,475 359 157 -960
2022-05-25 23:23:39 GMT 39.827839 -104.641708 5,475 0 167 -960
2022-05-25 23:23:38 GMT 39.827080 -104.641678 5,475 1 167 -960
2022-05-25 23:23:36 GMT 39.825520 -104.641739 5,500 359 160 -960
2022-05-25 23:23:34 GMT 39.824051 -104.641708 5,525 0 167 -960
2022-05-25 23:23:33 GMT 39.823292 -104.641731 5,525 359 172 -960
2022-05-25 23:23:32 GMT 39.822430 -104.641731 5,550 359 160 -960
2022-05-25 23:23:30 GMT 39.821018 -104.641670 5,625 1 169 -960
2022-05-25 23:23:29 GMT 39.820221 -104.641724 5,625 0 166 -960
2022-05-25 23:23:28 GMT 39.819431 -104.641693 5,625 1 164 -960
2022-05-25 23:23:27 GMT 39.817902 -104.641762 5,625 0 166 -960
2022-05-25 23:23:25 GMT 39.817120 -104.641747 5,650 1 163 -960
2022-05-25 23:23:24 GMT 39.815632 -104.641800 5,675 1 167 -960
2022-05-25 23:23:22 GMT 39.814880 -104.641876 5,750 0 168 -960
2022-05-25 23:23:20 GMT 39.813320 -104.641907 5,750 2 166 -960
2022-05-25 23:23:18 GMT 39.811840 -104.641991 5,775 1 167 -960
2022-05-25 23:23:17 GMT 39.811062 -104.642014 5,775 2 167 -960
2022-05-25 23:23:16 GMT 39.810261 -104.642059 5,900 1 159 -448
2022-05-25 23:23:15 GMT 39.808811 -104.642128 5,900 0 164 -448
2022-05-25 23:23:13 GMT 39.808071 -104.642151 5,900 0 165 -448
2022-05-25 23:23:11 GMT 39.806499 -104.642174 5,850 359 157 -608
2022-05-25 23:23:10 GMT 39.805820 -104.642181 5,850 359 166 -608
2022-05-25 23:23:09 GMT 39.805012 -104.642174 5,925 359 161 -608
2022-05-25 23:23:07 GMT 39.803440 -104.642151 5,925 358 151 -608
2022-05-25 23:23:06 GMT 39.802792 -104.642090 5,925 1 158 -608
2022-05-25 23:23:05 GMT 39.801941 -104.642174 5,925 0 148 -608
2022-05-25 23:23:04 GMT 39.800610 -104.642197 6,000 359 153 -608
2022-05-25 23:23:02 GMT 39.799889 -104.642151 6,075 0 152 -608
2022-05-25 23:23:01 GMT 39.798512 -104.642120 6,075 1 156 -608
2022-05-25 23:22:59 GMT 39.797798 -104.642151 6,075 1 158 -608
2022-05-25 23:22:58 GMT 39.796360 -104.642326 6,075 356 160 -608
2022-05-25 23:22:56 GMT 39.795700 -104.642326 6,075 356 166 -608
2022-05-25 23:22:55 GMT 39.794941 -104.642227 6,075 358 164 -608
2022-05-25 23:22:53 GMT 39.793480 -104.642159 6,200 0 170 -608
2022-05-25 23:22:52 GMT 39.792679 -104.642159 6,200 0 168 -608
2022-05-25 23:22:51 GMT 39.791000 -104.642189 6,200 0 155 -608
2022-05-25 23:22:49 GMT 39.790249 -104.642189 6,200 0 153 -608
2022-05-25 23:22:48 GMT 39.789570 -104.642227 6,300 359 155 -608
2022-05-25 23:22:46 GMT 39.788120 -104.642189 6,300 359 154 -608
2022-05-25 23:22:45 GMT 39.787411 -104.642197 6,300 359 155 -608
2022-05-25 23:22:44 GMT 39.786659 -104.642197 6,300 359 153 -608
2022-05-25 23:22:42 GMT 39.785252 -104.642189 6,300 359 153 -608
2022-05-25 23:22:41 GMT 39.784550 -104.642189 6,300 359 154 -608
2022-05-25 23:22:40 GMT 39.783150 -104.642189 6,400 359 154 -608
2022-05-25 23:22:38 GMT 39.782379 -104.642181 6,400 359 151 -608
2022-05-25 23:22:37 GMT 39.781712 -104.642181 6,400 359 153 -608
2022-05-25 23:22:36 GMT 39.780251 -104.642120 6,400 1 148 -608
2022-05-25 23:22:34 GMT 39.779629 -104.642151 6,400 1 153 -608
2022-05-25 23:22:32 GMT 39.778221 -104.642143 6,400 1 154 -608
2022-05-25 23:22:31 GMT 39.777512 -104.642143 6,400 2 154 -608
2022-05-25 23:22:30 GMT 39.776791 -104.642189 6,500 2 153 -608
2022-05-25 23:22:28 GMT 39.775410 -104.642250 6,500 2 157 -608
2022-05-25 23:22:27 GMT 39.774681 -104.642273 6,500 2 155 -608
2022-05-25 23:22:26 GMT 39.773190 -104.642357 6,600 2 150 -608
2022-05-25 23:22:24 GMT 39.772491 -104.642403 6,600 2 150 -608
2022-05-25 23:22:23 GMT 39.771778 -104.642464 6,600 1 149 -608
2022-05-25 23:22:21 GMT 39.770359 -104.642517 6,600 2 146 -608
2022-05-25 23:22:20 GMT 39.769032 -104.642570 6,600 2 148 -608
2022-05-25 23:22:18 GMT 39.768341 -104.642578 6,600 2 146 -608
2022-05-25 23:22:17 GMT 39.767632 -104.642578 6,600 3 144 -608
2022-05-25 23:22:15 GMT 39.766369 -104.642639 6,700 3 152 -192
2022-05-25 23:22:14 GMT 39.765671 -104.642670 6,700 3 153 -192
2022-05-25 23:22:12 GMT 39.764320 -104.642761 6,700 2 156 -192
2022-05-25 23:22:11 GMT 39.763569 -104.642769 6,700 2 154 -192
2022-05-25 23:22:10 GMT 39.762150 -104.642830 6,700 0 153 -160
2022-05-25 23:22:08 GMT 39.761452 -104.642853 6,700 359 152 -160
2022-05-25 23:22:07 GMT 39.760769 -104.642891 6,700 358 153 -160
2022-05-25 23:22:05 GMT 39.759361 -104.642853 6,700 355 151 -160
2022-05-25 23:22:04 GMT 39.758629 -104.642860 6,700 353 148 -160
2022-05-25 23:22:02 GMT 39.757290 -104.642700 6,800 350 150 -160
2022-05-25 23:22:01 GMT 39.756630 -104.642570 6,800 348 150 -160
2022-05-25 23:22:00 GMT 39.755920 -104.642441 6,800 346 148 -160
2022-05-25 23:21:58 GMT 39.754589 -104.642036 6,800 343 145 -160
2022-05-25 23:21:57 GMT 39.753910 -104.641808 6,800 341 142 -160
2022-05-25 23:21:56 GMT 39.753250 -104.641571 6,800 338 140 -160
2022-05-25 23:21:54 GMT 39.751999 -104.641006 6,800 334 138 -160
2022-05-25 23:21:53 GMT 39.751419 -104.640732 6,900 331 141 -160
2022-05-25 23:21:49 GMT 39.749222 -104.639160 6,850 329 139 -512
2022-05-25 23:21:45 GMT 39.747253 -104.637489 6,875 324 145 -256
2022-05-25 23:21:41 GMT 39.745045 -104.635132 6,925 317 156 -832
2022-05-25 23:21:37 GMT 39.743320 -104.633118 6,925 315 170 384
2022-05-25 23:21:34 GMT 39.741459 -104.630676 6,950 315 161 -256
2022-05-25 23:21:29 GMT 39.738201 -104.626343 6,925 315 177 512
2022-05-25 23:21:25 GMT 39.735992 -104.623398 6,900 313 185 256
2022-05-25 23:21:22 GMT 39.733612 -104.620117 6,900 313 196 0
2022-05-25 23:21:18 GMT 39.731823 -104.617615 6,900 314 198 192
2022-05-25 23:21:14 GMT 39.729584 -104.614563 6,875 314 205 128
2022-05-25 23:21:07 GMT 39.724777 -104.607819 6,875 313 219 -64
2022-05-25 23:20:57 GMT 39.717682 -104.597603 6,975 312 224 -704
2022-05-25 23:20:54 GMT 39.715668 -104.594681 6,975 313 223 -640
2022-05-25 23:20:46 GMT 39.710312 -104.587158 7,025 313 225 -512
2022-05-25 23:20:39 GMT 39.705460 -104.580528 7,750 315 222 -832
2022-05-25 23:20:33 GMT 39.701019 -104.575035 7,175 318 218 -896
2022-05-25 23:20:26 GMT 39.695160 -104.568047 7,300 317 212 -576
2022-05-25 23:20:22 GMT 39.693279 -104.565796 7,300 317 211 -960
2022-05-25 23:20:13 GMT 39.686623 -104.555725 7,450 304 216 -1216
2022-05-25 23:20:05 GMT 39.682938 -104.546791 7,550 293 221 -1024
2022-05-25 23:20:00 GMT 39.681564 -104.542198 7,600 291 222 -1152
2022-05-25 23:19:54 GMT 39.679497 -104.533813 7,900 286 222 -1280
2022-05-25 23:19:50 GMT 39.678497 -104.529419 7,900 286 222 -1280
2022-05-25 23:19:46 GMT 39.676849 -104.521660 7,975 286 225 -320
2022-05-25 23:19:41 GMT 39.675888 -104.516937 8,000 285 230 -448
2022-05-25 23:19:32 GMT 39.673187 -104.502670 7,975 284 238 640
2022-05-25 23:19:25 GMT 39.671494 -104.493057 7,900 282 247 448
2022-05-25 23:19:22 GMT 39.671070 -104.490479 7,875 282 247 256
2022-05-25 23:19:19 GMT 39.670486 -104.486786 7,850 282 250 256
2022-05-25 23:19:13 GMT 39.668930 -104.475983 7,850 280 255 -512
2022-05-25 23:19:09 GMT 39.668152 -104.470009 7,875 279 260 -576
2022-05-25 23:19:05 GMT 39.667580 -104.464539 7,900 276 267 128
2022-05-25 23:19:02 GMT 39.667236 -104.459740 7,900 272 273 -512
2022-05-25 23:18:59 GMT 39.667053 -104.453888 7,900 270 274 128
2022-05-25 23:18:51 GMT 39.667419 -104.440094 7,925 267 273 -128
2022-05-25 23:18:48 GMT 39.667603 -104.436874 7,950 267 272 192
2022-05-25 23:18:41 GMT 39.668152 -104.425705 7,950 267 276 -256
2022-05-25 23:18:37 GMT 39.668556 -104.417419 7,950 267 278 64
2022-05-25 23:18:30 GMT 39.669117 -104.406738 7,925 267 279 512
2022-05-25 23:18:27 GMT 39.669434 -104.400452 7,950 267 278 -384
2022-05-25 23:18:21 GMT 39.669907 -104.390747 7,975 267 277 -64
2022-05-25 23:18:15 GMT 39.670235 -104.383484 7,975 267 276 320
2022-05-25 23:18:10 GMT 39.670654 -104.373596 7,975 268 276 0
2022-05-25 23:18:05 GMT 39.670944 -104.365936 7,950 266 274 128
2022-05-25 23:17:58 GMT 39.671631 -104.353577 7,950 266 276 320
2022-05-25 23:17:54 GMT 39.672050 -104.345764 7,900 266 276 640
2022-05-25 23:17:49 GMT 39.672421 -104.339111 7,850 267 276 320
2022-05-25 23:17:44 GMT 39.672890 -104.330017 7,825 267 275 -320
2022-05-25 23:17:38 GMT 39.673325 -104.321632 7,825 267 275 -128
2022-05-25 23:17:33 GMT 39.673691 -104.311783 7,850 266 274 128
2022-05-25 23:17:28 GMT 39.674011 -104.304558 7,850 267 275 -256
2022-05-25 23:17:21 GMT 39.674515 -104.293991 7,900 267 274 -320
2022-05-25 23:17:18 GMT 39.674835 -104.287483 7,900 267 271 -512
2022-05-25 23:17:12 GMT 39.675430 -104.277153 7,950 266 268 -576
2022-05-25 23:17:07 GMT 39.675842 -104.270706 7,975 266 269 -832
2022-05-25 23:17:01 GMT 39.676472 -104.260071 8,025 267 272 -192
2022-05-25 23:16:57 GMT 39.676800 -104.253540 8,025 266 273 -320
2022-05-25 23:16:49 GMT 39.677498 -104.241699 8,000 266 274 320
2022-05-25 23:16:45 GMT 39.677914 -104.235168 8,000 266 273 192
2022-05-25 23:16:40 GMT 39.678543 -104.225029 7,975 266 271 320
2022-05-25 23:16:35 GMT 39.679001 -104.217857 7,950 266 274 192
2022-05-25 23:16:29 GMT 39.679688 -104.206696 7,950 266 278 192
2022-05-25 23:16:25 GMT 39.679962 -104.201660 7,950 267 280 0
2022-05-25 23:16:18 GMT 39.680603 -104.189262 7,950 267 278 -128
2022-05-25 23:16:15 GMT 39.680923 -104.183945 7,950 266 277 -128
2022-05-25 23:16:04 GMT 39.682022 -104.166809 7,975 265 272 128
2022-05-25 23:15:57 GMT 39.682892 -104.153732 7,950 265 272 -192
2022-05-25 23:15:51 GMT 39.683689 -104.143677 7,925 265 272 64
2022-05-25 23:15:46 GMT 39.684292 -104.135864 7,925 265 272 192
2022-05-25 23:15:43 GMT 39.684570 -104.132629 7,925 265 271 -192
2022-05-25 23:15:35 GMT 39.685455 -104.119080 7,950 266 269 -448
2022-05-25 23:15:32 GMT 39.685692 -104.115234 7,950 266 268 -448
2022-05-25 23:15:23 GMT 39.686691 -104.099518 8,050 266 267 -768
2022-05-25 23:15:11 GMT 39.687737 -104.082520 8,250 266 273 -640
2022-05-25 23:15:07 GMT 39.688156 -104.074707 8,250 266 273 -640
2022-05-25 23:15:01 GMT 39.688751 -104.063873 8,325 267 276 -576
2022-05-25 23:14:53 GMT 39.689507 -104.049561 8,450 266 280 -832
2022-05-25 23:14:49 GMT 39.689758 -104.045181 8,475 266 282 -1408
2022-05-25 23:14:40 GMT 39.690628 -104.028763 8,600 267 289 -896
2022-05-25 23:14:31 GMT 39.691322 -104.012329 8,725 267 294 -1216
2022-05-25 23:14:28 GMT 39.691452 -104.009834 8,750 267 294 -832
2022-05-25 23:14:19 GMT 39.692532 -103.991882 8,925 266 294 -640
2022-05-25 23:14:08 GMT 39.693649 -103.973175 9,050 266 295 -1408
2022-05-25 23:13:57 GMT 39.695232 -103.950378 9,225 265 293 -768
2022-05-25 23:13:45 GMT 39.696583 -103.930847 9,375 266 288 -768
2022-05-25 23:13:37 GMT 39.697357 -103.918839 9,525 265 284 -1600
2022-05-25 23:13:34 GMT 39.697792 -103.912415 9,600 266 283 -960
2022-05-25 23:13:28 GMT 39.698410 -103.902664 9,700 266 280 -1408
2022-05-25 23:13:24 GMT 39.698914 -103.895256 9,775 266 281 -896
2022-05-25 23:13:15 GMT 39.699703 -103.881958 9,825 266 291 192
2022-05-25 23:13:11 GMT 39.700012 -103.875969 9,825 266 298 0
2022-05-25 23:13:05 GMT 39.700653 -103.863609 9,825 267 310 -640
2022-05-25 23:13:02 GMT 39.701054 -103.856506 9,850 267 316 -128
2022-05-25 23:12:54 GMT 39.701702 -103.843445 9,900 267 322 -192
2022-05-25 23:12:51 GMT 39.702164 -103.835373 9,900 266 325 -320
2022-05-25 23:12:46 GMT 39.702621 -103.827545 9,925 266 327 64
2022-05-25 23:12:41 GMT 39.703354 -103.815788 9,950 266 327 -128
2022-05-25 23:12:36 GMT 39.703892 -103.805969 9,950 267 327 -128
2022-05-25 23:12:33 GMT 39.704079 -103.802063 9,950 268 327 -128
2022-05-25 23:12:28 GMT 39.704216 -103.793457 9,975 271 326 256
2022-05-25 23:12:23 GMT 39.703659 -103.780945 9,975 277 324 -256
2022-05-25 23:12:19 GMT 39.702896 -103.773628 9,975 280 324 -192
2022-05-25 23:12:15 GMT 39.701752 -103.765991 9,975 283 327 0
2022-05-25 23:12:12 GMT 39.700974 -103.761391 9,975 283 327 0
2022-05-25 23:12:08 GMT 39.699425 -103.752563 9,950 283 331 256
2022-05-25 23:12:02 GMT 39.697372 -103.740906 9,900 283 336 448
2022-05-25 23:11:57 GMT 39.695744 -103.731384 9,900 283 338 -192
2022-05-25 23:11:51 GMT 39.693695 -103.719955 9,925 284 335 0
2022-05-25 23:11:41 GMT 39.689850 -103.699059 9,925 284 328 512
2022-05-25 23:11:35 GMT 39.688019 -103.689140 9,925 283 319 128
2022-05-25 23:11:29 GMT 39.685970 -103.678162 9,900 284 322 -320
2022-05-25 23:11:20 GMT 39.682709 -103.659546 9,875 283 315 -192
2022-05-25 23:11:08 GMT 39.678864 -103.638809 9,950 285 306 -832
2022-05-25 23:10:58 GMT 39.675705 -103.622810 10,025 285 296 -64
2022-05-25 23:10:55 GMT 39.674751 -103.617737 10,050 284 287 -576
2022-05-25 23:10:52 GMT 39.673401 -103.610535 10,075 284 277 -640
2022-05-25 23:10:46 GMT 39.671906 -103.601967 10,100 283 267 -192
2022-05-25 23:10:39 GMT 39.670326 -103.592529 10,125 283 257 -512
2022-05-25 23:10:36 GMT 39.669441 -103.587769 10,125 284 256 -256
2022-05-25 23:10:26 GMT 39.666325 -103.571533 10,150 285 259 -192
2022-05-25 23:10:15 GMT 39.663391 -103.556770 10,200 285 259 64
2022-05-25 23:10:12 GMT 39.662521 -103.552528 10,200 285 260 -256
2022-05-25 23:10:09 GMT 39.661606 -103.547691 10,200 285 260 384
2022-05-25 23:10:05 GMT 39.660049 -103.539810 10,175 284 260 128
2022-05-25 23:10:00 GMT 39.658688 -103.532227 10,175 283 259 128
2022-05-25 23:09:53 GMT 39.657120 -103.523453 10,150 283 257 512
2022-05-25 23:09:42 GMT 39.654175 -103.505798 10,075 282 253 128
2022-05-25 23:07:04 GMT 39.612305 -103.278946 11,150 283 252 -1728
2022-05-25 23:06:55 GMT 39.610016 -103.265991 11,425 283 253 -1728
2022-05-25 23:06:44 GMT 39.607178 -103.250046 11,800 284 253 -2112
2022-05-25 23:06:34 GMT 39.604431 -103.234589 12,150 283 256 -2112
2022-05-25 23:06:22 GMT 39.601227 -103.217270 12,600 284 256 -2432
2022-05-25 23:06:12 GMT 39.598251 -103.201805 13,025 284 255 -2112
2022-05-25 23:06:01 GMT 39.595276 -103.186462 13,425 284 254 -3200
2022-05-25 23:05:52 GMT 39.592587 -103.172119 13,875 284 249 -2176
2022-05-25 23:05:41 GMT 39.589745 -103.157166 14,250 284 243 -2240
2022-05-25 23:05:37 GMT 39.588867 -103.152367 14,400 284 242 -2112
2022-05-25 23:05:34 GMT 39.587883 -103.146973 14,525 283 240 -1920
2022-05-25 23:05:29 GMT 39.586441 -103.138870 14,700 284 239 -1664
2022-05-25 23:05:18 GMT 39.583878 -103.125023 15,000 284 235 -1664
2022-05-25 23:05:10 GMT 39.581505 -103.112793 15,250 284 232 -1792
2022-05-25 23:05:07 GMT 39.580994 -103.110046 15,325 284 232 -2048
2022-05-25 23:05:03 GMT 39.579922 -103.104126 15,450 284 231 -1600
2022-05-25 23:04:58 GMT 39.578480 -103.096619 15,600 285 229 -1344
2022-05-25 23:04:51 GMT 39.577038 -103.089111 15,725 284 230 -1472
2022-05-25 23:04:47 GMT 39.575966 -103.083191 15,850 284 230 -1216
2022-05-25 23:04:40 GMT 39.574196 -103.073547 15,925 284 232 -256
2022-05-25 23:04:36 GMT 39.572987 -103.067017 15,925 284 233 128
2022-05-25 23:04:29 GMT 39.571590 -103.059326 15,925 284 237 128
2022-05-25 23:04:26 GMT 39.570602 -103.054085 15,900 284 239 0
2022-05-25 23:04:20 GMT 39.569000 -103.045670 15,925 284 241 -256
2022-05-25 23:04:17 GMT 39.568237 -103.041443 15,925 284 243 -256
2022-05-25 23:04:14 GMT 39.567680 -103.038635 15,950 284 243 -192
2022-05-25 23:04:08 GMT 39.565796 -103.028709 15,950 284 244 64
2022-05-25 23:04:04 GMT 39.564980 -103.024475 15,950 284 244 64
2022-05-25 23:03:57 GMT 39.563095 -103.014503 15,925 284 245 64
2022-05-25 23:03:54 GMT 39.562042 -103.008766 15,925 284 245 128
2022-05-25 23:03:43 GMT 39.559441 -102.994751 15,925 284 245 0
2022-05-25 23:03:39 GMT 39.558182 -102.987915 15,925 284 245 64
2022-05-25 23:03:34 GMT 39.556648 -102.979919 15,925 284 244 -128
2022-05-25 23:03:22 GMT 39.553757 -102.964882 15,950 284 242 -128
2022-05-25 23:03:15 GMT 39.551666 -102.953369 15,950 284 240 64
2022-05-25 23:03:12 GMT 39.551155 -102.950562 15,950 284 240 64
2022-05-25 23:03:02 GMT 39.548492 -102.936340 15,925 284 236 0
2022-05-25 23:02:56 GMT 39.546890 -102.928101 15,950 285 233 0
2022-05-25 23:02:51 GMT 39.545654 -102.921532 15,950 285 234 -64
2022-05-25 23:02:41 GMT 39.542961 -102.907837 15,950 284 230 -64
2022-05-25 23:02:34 GMT 39.540958 -102.897095 15,950 284 229 0
2022-05-25 23:02:30 GMT 39.540253 -102.893112 15,925 284 229 128
2022-05-25 23:02:24 GMT 39.538605 -102.884575 15,925 284 230 0
2022-05-25 23:02:20 GMT 39.537468 -102.878418 15,925 284 231 0
2022-05-25 23:02:15 GMT 39.536209 -102.871948 15,925 285 236 0
2022-05-25 23:02:09 GMT 39.534897 -102.865112 15,925 284 237 -128
2022-05-25 23:02:03 GMT 39.533203 -102.856270 15,925 284 241 -64
2022-05-25 23:01:58 GMT 39.531967 -102.849464 15,925 284 245 0
2022-05-25 23:01:52 GMT 39.530018 -102.838684 15,950 284 252 -384
2022-05-25 23:01:49 GMT 39.529461 -102.835693 15,950 284 255 -512
2022-05-25 23:01:39 GMT 39.526428 -102.819733 16,025 284 265 -320
2022-05-25 23:01:31 GMT 39.524094 -102.806473 16,050 283 275 -256
2022-05-25 23:01:27 GMT 39.523502 -102.802917 16,050 282 277 -576
2022-05-25 23:01:21 GMT 39.521530 -102.790833 16,200 284 281 -1408
2022-05-25 23:01:18 GMT 39.520615 -102.785889 16,275 284 281 -1408
2022-05-25 23:01:06 GMT 39.516769 -102.768860 16,525 288 280 -1536
2022-05-25 23:00:57 GMT 39.512840 -102.751648 16,800 286 284 -1536
2022-05-25 23:00:45 GMT 39.508942 -102.734291 17,100 286 285 -1856
2022-05-25 23:00:36 GMT 39.505859 -102.717224 17,450 280 290 -1984
2022-05-25 23:00:24 GMT 39.503174 -102.697868 17,800 283 286 -1984
2022-05-25 23:00:14 GMT 39.500107 -102.681206 18,150 284 286 -1984
2022-05-25 23:00:04 GMT 39.496876 -102.664307 18,475 284 284 -1984
2022-05-25 22:59:57 GMT 39.494614 -102.652252 18,725 284 282 -1984
2022-05-25 22:59:52 GMT 39.493427 -102.645935 18,850 284 282 -1984
2022-05-25 22:59:47 GMT 39.491089 -102.633919 19,100 285 279 -1920
2022-05-25 22:59:43 GMT 39.490124 -102.629089 19,200 285 279 -1920
2022-05-25 22:59:39 GMT 39.488892 -102.622871 19,325 285 278 -1984
2022-05-25 22:59:32 GMT 39.486923 -102.612541 19,525 284 277 -1856
2022-05-25 22:59:22 GMT 39.483421 -102.593689 19,875 283 276 -1728
2022-05-25 22:59:13 GMT 39.481155 -102.581200 20,100 284 274 -1728
2022-05-25 22:59:10 GMT 39.480423 -102.577316 20,175 284 273 -1728
2022-05-25 22:59:00 GMT 39.477043 -102.559937 20,500 285 272 -1792
2022-05-25 22:58:55 GMT 39.475708 -102.552719 20,625 279 276 -1088
2022-05-25 22:58:49 GMT 39.474201 -102.544067 20,775 282 273 -1600
2022-05-25 22:58:39 GMT 39.471687 -102.526733 21,075 281 273 -1536
2022-05-25 22:58:32 GMT 39.470169 -102.516113 21,225 279 276 -1088
2022-05-25 22:58:29 GMT 39.469528 -102.510918 21,275 280 275 -1152
2022-05-25 22:58:26 GMT 39.468990 -102.506104 21,350 276 282 -1088
2022-05-25 22:58:21 GMT 39.468430 -102.497604 21,425 273 286 -1088
2022-05-25 22:58:18 GMT 39.468384 -102.492050 21,500 269 292 -1024
2022-05-25 22:58:10 GMT 39.470169 -102.476524 21,650 256 309 -1216
2022-05-25 22:58:06 GMT 39.470757 -102.473877 21,675 252 315 -1216
2022-05-25 22:58:00 GMT 39.474792 -102.461479 21,875 237 336 -1152
2022-05-25 22:57:57 GMT 39.477741 -102.455078 21,875 235 339 -1152
2022-05-25 22:57:53 GMT 39.480881 -102.449417 21,950 229 347 -1152
2022-05-25 22:57:49 GMT 39.485504 -102.442551 22,025 225 353 -1088
2022-05-25 22:57:45 GMT 39.488846 -102.438431 22,075 222 356 -1088
2022-05-25 22:57:38 GMT 39.499008 -102.428520 22,225 211 368 -1216
2022-05-25 22:57:35 GMT 39.502831 -102.425659 22,275 208 371 -1152
2022-05-25 22:57:28 GMT 39.518753 -102.417236 22,475 194 381 -1152
2022-05-25 22:57:25 GMT 39.520615 -102.416641 22,475 195 380 -1152
2022-05-25 22:57:21 GMT 39.526482 -102.414978 22,550 190 383 -1152
2022-05-25 22:57:18 GMT 39.531322 -102.414062 22,600 186 384 -1024
2022-05-25 22:57:14 GMT 39.538399 -102.413391 22,675 181 387 -1088
2022-05-25 22:57:11 GMT 39.546066 -102.413536 22,750 175 388 -1024
2022-05-25 22:57:08 GMT 39.549637 -102.413956 22,800 171 389 -1088
2022-05-25 22:57:04 GMT 39.557762 -102.415771 22,875 166 389 -1024
2022-05-25 22:57:00 GMT 39.564655 -102.418274 22,950 160 388 -1088
2022-05-25 22:56:53 GMT 39.575268 -102.424072 23,050 151 387 -768
2022-05-25 22:56:49 GMT 39.581680 -102.428940 23,100 144 384 -768
2022-05-25 22:56:45 GMT 39.588676 -102.435791 23,175 141 383 -896
2022-05-25 22:56:42 GMT 39.591282 -102.438904 23,200 135 379 -1024
2022-05-25 22:56:37 GMT 39.596264 -102.445496 23,275 132 378 -960
2022-05-25 22:56:34 GMT 39.601593 -102.453300 23,350 131 380 -960
2022-05-25 22:56:31 GMT 39.603245 -102.455750 23,350 131 381 -960
2022-05-25 22:56:25 GMT 39.610748 -102.466255 23,450 134 388 -896
2022-05-25 22:56:22 GMT 39.616653 -102.473816 23,525 135 393 -640
2022-05-25 22:56:15 GMT 39.624332 -102.483948 23,575 132 394 -640
2022-05-25 22:56:10 GMT 39.629150 -102.491455 23,650 126 393 -832
2022-05-25 22:56:04 GMT 39.635284 -102.504051 23,725 118 388 -768
2022-05-25 22:56:01 GMT 39.638252 -102.512207 23,775 111 385 -704
2022-05-25 22:55:55 GMT 39.641327 -102.524895 23,850 101 380 -896
2022-05-25 22:55:49 GMT 39.642700 -102.535637 23,925 95 377 -960
2022-05-25 22:55:44 GMT 39.643433 -102.548950 24,000 92 380 -640
2022-05-25 22:55:39 GMT 39.643932 -102.560425 24,075 94 385 -704
2022-05-25 22:55:34 GMT 39.644863 -102.573608 24,150 96 394 -896
2022-05-25 22:55:28 GMT 39.645950 -102.586212 24,225 96 399 -768
2022-05-25 22:55:23 GMT 39.647236 -102.600220 24,300 96 405 -832
2022-05-25 22:55:18 GMT 39.649612 -102.625145 24,575 96 418 -768
2022-05-25 22:55:12 GMT 39.649612 -102.625145 24,425 96 418 -896
2022-05-25 22:55:07 GMT 39.650776 -102.637695 24,575 96 424 -832
2022-05-25 22:55:02 GMT 39.651947 -102.651352 24,575 96 429 -832
2022-05-25 22:54:57 GMT 39.653057 -102.664246 24,675 96 437 -832
2022-05-25 22:54:51 GMT 39.654419 -102.680435 24,725 96 443 -1024
2022-05-25 22:54:45 GMT 39.656891 -102.709328 24,825 96 449 -832
2022-05-25 22:54:40 GMT 39.656891 -102.709328 24,875 96 457 -192
2022-05-25 22:54:35 GMT 39.657898 -102.721390 24,875 96 460 -576
2022-05-25 22:54:28 GMT 39.659363 -102.738831 24,950 96 458 -640
2022-05-25 22:54:24 GMT 39.660416 -102.750710 24,975 96 455 -256
2022-05-25 22:54:19 GMT 39.661835 -102.766953 25,000 96 456 0
2022-05-25 22:54:15 GMT 39.662926 -102.778442 25,000 96 455 -64
2022-05-25 22:54:08 GMT 39.664600 -102.796692 25,000 96 454 0
2022-05-25 22:54:03 GMT 39.665627 -102.808594 25,000 96 452 64
2022-05-25 22:53:58 GMT 39.667023 -102.824951 25,000 95 451 -64
2022-05-25 22:53:54 GMT 39.667767 -102.834473 25,000 95 450 64
2022-05-25 22:53:46 GMT 39.669582 -102.855896 25,000 96 448 0
2022-05-25 22:53:42 GMT 39.670303 -102.864037 25,000 96 448 -64
2022-05-25 22:53:38 GMT 39.671211 -102.874084 25,000 96 447 64
2022-05-25 22:53:35 GMT 39.672283 -102.885864 25,000 96 445 128
2022-05-25 22:53:32 GMT 39.672775 -102.891502 25,000 96 445 128
2022-05-25 22:53:29 GMT 39.673599 -102.900993 25,000 96 443 64
2022-05-25 22:53:22 GMT 39.675018 -102.919144 25,000 95 441 -128
2022-05-25 22:53:17 GMT 39.675842 -102.929535 25,000 95 439 0
2022-05-25 22:53:11 GMT 39.677170 -102.945862 25,000 96 437 128
2022-05-25 22:53:08 GMT 39.678131 -102.956703 25,000 96 436 0
2022-05-25 22:53:01 GMT 39.679779 -102.974915 25,000 96 434 0
2022-05-25 22:52:57 GMT 39.680466 -102.982674 25,000 96 433 0
2022-05-25 22:52:52 GMT 39.681686 -102.996399 25,000 96 430 0
2022-05-25 22:52:49 GMT 39.682106 -103.001465 25,000 96 429 -64
2022-05-25 22:52:46 GMT 39.682800 -103.009308 25,000 96 427 64
2022-05-25 22:52:39 GMT 39.684433 -103.029968 25,000 95 424 0
2022-05-25 22:52:36 GMT 39.684807 -103.035156 25,000 95 423 -128
2022-05-25 22:52:28 GMT 39.686462 -103.055580 25,000 95 420 -128
2022-05-25 22:52:25 GMT 39.687038 -103.063171 25,000 96 418 -64
2022-05-25 22:52:19 GMT 39.688530 -103.080933 25,025 96 414 -64
2022-05-25 22:52:16 GMT 39.689041 -103.086975 25,025 96 412 0
2022-05-25 22:52:10 GMT 39.690392 -103.102600 25,025 96 408 192
2022-05-25 22:52:07 GMT 39.690716 -103.106506 25,000 96 405 128
2022-05-25 22:52:02 GMT 39.691910 -103.120361 25,000 95 402 192
2022-05-25 22:51:58 GMT 39.692871 -103.132065 25,000 95 402 192
2022-05-25 22:51:54 GMT 39.693695 -103.142517 24,975 95 396 448
2022-05-25 22:51:50 GMT 39.694061 -103.147354 24,975 95 397 320
2022-05-25 22:51:47 GMT 39.694813 -103.156311 24,950 95 396 448
2022-05-25 22:51:44 GMT 39.695343 -103.163414 24,925 96 394 640
2022-05-25 22:51:40 GMT 39.696117 -103.172302 24,875 96 392 960
2022-05-25 22:51:37 GMT 39.696861 -103.181641 24,750 96 391 896
2022-05-25 22:51:34 GMT 39.697449 -103.188431 24,625 96 386 1088
2022-05-25 22:51:29 GMT 39.698318 -103.198700 24,700 96 389 1024
2022-05-25 22:51:26 GMT 39.698956 -103.205811 24,650 96 388 1088
2022-05-25 22:51:23 GMT 39.699516 -103.212219 24,600 96 388 1024
2022-05-25 22:51:17 GMT 39.700653 -103.225685 24,500 96 386 1088
2022-05-25 22:51:13 GMT 39.701477 -103.235779 24,425 96 385 896
2022-05-25 22:51:09 GMT 39.702393 -103.246643 24,350 96 384 1024
2022-05-25 22:51:05 GMT 39.703079 -103.255005 24,300 96 383 1024
2022-05-25 22:51:01 GMT 39.703613 -103.260986 24,250 96 383 1088
2022-05-25 22:50:57 GMT 39.704681 -103.273743 24,150 96 382 1024
2022-05-25 22:50:54 GMT 39.705231 -103.280380 24,100 96 381 960
2022-05-25 22:50:51 GMT 39.705521 -103.283691 24,075 96 380 960
2022-05-25 22:50:45 GMT 39.706696 -103.298653 23,950 95 378 1024
2022-05-25 22:50:42 GMT 39.707336 -103.306709 23,900 95 377 1152
2022-05-25 22:50:36 GMT 39.708481 -103.321098 23,775 95 374 1280
2022-05-25 22:50:33 GMT 39.709011 -103.327820 23,700 95 374 1408
2022-05-25 22:50:30 GMT 39.709259 -103.330894 23,675 95 374 1600
2022-05-25 22:50:25 GMT 39.710270 -103.343872 23,500 95 374 1664
2022-05-25 22:50:21 GMT 39.711014 -103.353760 23,400 95 375 1408
2022-05-25 22:50:16 GMT 39.711823 -103.364029 23,250 95 374 1216
2022-05-25 22:50:12 GMT 39.712509 -103.372749 23,225 95 374 1216
2022-05-25 22:50:09 GMT 39.712921 -103.378365 23,175 95 373 1216
2022-05-25 22:50:04 GMT 39.713856 -103.390381 23,050 95 373 1280
2022-05-25 22:50:01 GMT 39.714432 -103.397949 22,950 96 373 1408
2022-05-25 22:49:57 GMT 39.715302 -103.408577 22,875 96 372 1664
2022-05-25 22:49:53 GMT 39.715855 -103.415283 22,775 96 372 1984
2022-05-25 22:49:49 GMT 39.716766 -103.426186 22,600 96 373 2368
2022-05-25 22:49:44 GMT 39.717682 -103.437057 22,075 96 375 2368
2022-05-25 22:49:39 GMT 39.718689 -103.448700 22,200 96 377 2176
2022-05-25 22:49:32 GMT 39.719860 -103.461731 21,950 96 379 2240
2022-05-25 22:49:29 GMT 39.720474 -103.469414 21,875 96 380 2304
2022-05-25 22:49:26 GMT 39.720882 -103.474243 21,775 95 381 2304
2022-05-25 22:49:21 GMT 39.721767 -103.485352 21,600 95 381 2176
2022-05-25 22:49:17 GMT 39.722698 -103.497192 21,425 95 383 2240
2022-05-25 22:49:12 GMT 39.723583 -103.508179 21,225 95 384 2240
2022-05-25 22:49:09 GMT 39.724823 -103.524292 21,100 95 385 2112
2022-05-25 22:49:05 GMT 39.724823 -103.524292 20,975 95 386 2048
2022-05-25 22:49:01 GMT 39.725491 -103.533081 20,850 95 387 1920
2022-05-25 22:48:58 GMT 39.726143 -103.541199 20,750 95 388 1792
2022-05-25 22:48:55 GMT 39.726608 -103.546936 20,675 95 387 1728
2022-05-25 22:48:47 GMT 39.728004 -103.565247 20,450 95 387 1408
2022-05-25 22:48:43 GMT 39.728714 -103.574203 20,375 95 386 1152
2022-05-25 22:48:37 GMT 39.729820 -103.589233 20,275 95 384 832
2022-05-25 22:48:34 GMT 39.730362 -103.596298 20,225 95 383 704
2022-05-25 22:48:31 GMT 39.731003 -103.604301 20,175 95 382 768
2022-05-25 22:48:26 GMT 39.731735 -103.613609 20,125 96 381 960
2022-05-25 22:48:20 GMT 39.732880 -103.627228 20,025 96 379 1600
2022-05-25 22:48:13 GMT 39.734383 -103.644897 19,800 96 379 2048
2022-05-25 22:48:10 GMT 39.734894 -103.651245 19,700 96 379 2176
2022-05-25 22:48:05 GMT 39.735718 -103.661621 19,550 95 380 2240
2022-05-25 22:47:59 GMT 39.736679 -103.674339 19,350 95 381 1984
2022-05-25 22:47:54 GMT 39.737362 -103.684875 19,175 94 382 2048
2022-05-25 22:47:48 GMT 39.738235 -103.698097 18,975 95 383 1856
2022-05-25 22:47:44 GMT 39.738968 -103.708252 18,850 95 384 1664
2022-05-25 22:47:37 GMT 39.740204 -103.723145 18,675 96 386 1536
2022-05-25 22:47:34 GMT 39.741119 -103.733086 18,550 96 386 1664
2022-05-25 22:47:27 GMT 39.742447 -103.746880 18,375 97 387 1664
2022-05-25 22:47:22 GMT 39.743591 -103.757927 18,250 97 388 1536
2022-05-25 22:47:18 GMT 39.744965 -103.769928 18,100 98 388 1856
2022-05-25 22:47:13 GMT 39.746346 -103.781494 17,950 99 389 1984
2022-05-25 22:47:07 GMT 39.747929 -103.794434 17,775 98 390 1856
2022-05-25 22:47:01 GMT 39.749313 -103.805992 17,625 98 391 1728
2022-05-25 22:46:56 GMT 39.750862 -103.819214 17,450 98 391 1664
2022-05-25 22:46:52 GMT 39.752106 -103.830116 17,325 98 391 1600
2022-05-25 22:46:46 GMT 39.753983 -103.845459 17,150 99 393 1536
2022-05-25 22:46:40 GMT 39.755192 -103.854797 17,050 99 393 1536
2022-05-25 22:46:35 GMT 39.757233 -103.870003 16,875 99 393 1536
2022-05-25 22:46:31 GMT 39.758545 -103.879700 16,775 99 392 1600
2022-05-25 22:46:26 GMT 39.759987 -103.890808 16,650 99 392 1472
2022-05-25 22:46:23 GMT 39.760437 -103.894302 16,600 99 392 1472
2022-05-25 22:46:19 GMT 39.761627 -103.903557 16,500 98 390 1280
2022-05-25 22:46:14 GMT 39.763477 -103.919556 16,350 98 389 1536
2022-05-25 22:46:10 GMT 39.764511 -103.928513 16,250 98 388 1664
2022-05-25 22:46:05 GMT 39.765713 -103.939148 16,125 98 388 1856
2022-05-25 22:46:02 GMT 39.766571 -103.946724 16,025 98 388 1920
2022-05-25 22:45:58 GMT 39.767212 -103.952461 15,925 98 388 2176
2022-05-25 22:45:54 GMT 39.768448 -103.963387 15,750 98 388 2496
2022-05-25 22:45:50 GMT 39.769455 -103.972580 15,600 97 389 2304
2022-05-25 22:45:47 GMT 39.769958 -103.977417 15,500 97 390 2112
2022-05-25 22:45:44 GMT 39.771011 -103.987686 15,350 97 391 2048
2022-05-25 22:45:40 GMT 39.772137 -103.998352 15,200 97 391 2112
2022-05-25 22:45:36 GMT 39.772842 -104.005058 15,100 97 391 1920
2022-05-25 22:45:33 GMT 39.773575 -104.011810 15,000 98 390 1600
2022-05-25 22:45:29 GMT 39.774651 -104.021606 14,875 98 390 1472
2022-05-25 22:45:26 GMT 39.775536 -104.029907 14,800 97 389 1536
2022-05-25 22:45:22 GMT 39.776142 -104.035522 14,750 97 389 1600
2022-05-25 22:45:17 GMT 39.777721 -104.050293 14,550 97 389 1792
2022-05-25 22:45:13 GMT 39.778748 -104.060051 14,450 98 387 1344
2022-05-25 22:45:09 GMT 39.779755 -104.069244 14,375 98 385 640
2022-05-25 22:45:05 GMT 39.780609 -104.077026 14,325 97 384 704
2022-05-25 22:45:02 GMT 39.781357 -104.083878 14,275 97 383 768
2022-05-25 22:44:56 GMT 39.782890 -104.098877 14,225 97 378 512
2022-05-25 22:44:52 GMT 39.783783 -104.107399 14,175 97 375 576
2022-05-25 22:44:48 GMT 39.784744 -104.117195 14,100 97 371 1152
2022-05-25 22:44:45 GMT 39.785358 -104.123779 14,050 96 369 576
2022-05-25 22:44:41 GMT 39.785961 -104.129944 14,025 97 367 640
2022-05-25 22:44:35 GMT 39.787491 -104.145020 13,950 98 362 704
2022-05-25 22:44:31 GMT 39.788338 -104.152466 13,350 98 344 2112
2022-05-25 22:44:26 GMT 39.789593 -104.163330 13,800 98 356 1408
2022-05-25 22:44:23 GMT 39.790058 -104.167664 13,775 98 356 1280
2022-05-25 22:44:20 GMT 39.790924 -104.174988 13,675 98 353 1408
2022-05-25 22:44:16 GMT 39.791977 -104.184189 13,150 97 343 2560
2022-05-25 22:44:12 GMT 39.793457 -104.197021 13,450 98 346 1728
2022-05-25 22:44:06 GMT 39.794296 -104.204407 13,350 98 344 2176
2022-05-25 22:44:03 GMT 39.795040 -104.210999 13,250 97 344 2304
2022-05-25 22:44:00 GMT 39.795776 -104.217918 13,125 97 343 2624
2022-05-25 22:43:55 GMT 39.796967 -104.229385 12,900 97 343 2112
2022-05-25 22:43:52 GMT 39.797367 -104.233032 12,825 97 343 2176
2022-05-25 22:43:48 GMT 39.798252 -104.241882 12,675 97 341 2496
2022-05-25 22:43:43 GMT 39.799278 -104.251770 12,475 97 339 1600
2022-05-25 22:43:40 GMT 39.801865 -104.273811 12,200 99 334 1344
2022-05-25 22:43:33 GMT 39.801865 -104.273811 12,250 99 334 1664
2022-05-25 22:43:30 GMT 39.802116 -104.275757 12,250 99 334 1664
2022-05-25 22:43:27 GMT 39.803146 -104.283066 12,125 100 331 1984
2022-05-25 22:43:24 GMT 39.803978 -104.289062 12,050 100 329 1472
2022-05-25 22:43:21 GMT 39.804977 -104.296494 11,950 99 326 1472
2022-05-25 22:43:17 GMT 39.805889 -104.303772 11,875 98 323 1152
2022-05-25 22:43:12 GMT 39.806854 -104.312561 11,750 97 318 1152
2022-05-25 22:43:09 GMT 39.807220 -104.316383 11,725 96 317 1344
2022-05-25 22:43:06 GMT 39.807938 -104.325073 11,600 95 313 1664
2022-05-25 22:43:03 GMT 39.808216 -104.328796 11,500 94 309 1216
2022-05-25 22:43:00 GMT 39.808681 -104.336243 11,475 93 308 1536
2022-05-25 22:42:57 GMT 39.808914 -104.340637 11,400 93 306 1920
2022-05-25 22:42:54 GMT 39.809097 -104.345222 11,350 92 304 1536
2022-05-25 22:42:51 GMT 39.809235 -104.350471 11,275 91 300 1472
2022-05-25 22:42:47 GMT 39.809425 -104.359985 11,125 91 297 1664
2022-05-25 22:42:44 GMT 39.809566 -104.364929 11,050 92 295 1920
2022-05-25 22:42:41 GMT 39.809704 -104.368530 10,975 94 294 2048
2022-05-25 22:42:38 GMT 39.810032 -104.374329 10,850 95 294 2816
2022-05-25 22:42:35 GMT 39.810543 -104.379944 10,600 98 295 3776
2022-05-25 22:42:32 GMT 39.812405 -104.393127 10,450 100 297 3712
2022-05-25 22:42:28 GMT 39.812405 -104.393127 10,250 103 297 3328
2022-05-25 22:42:23 GMT 39.813988 -104.400879 10,025 106 298 1792
2022-05-25 22:42:20 GMT 39.815231 -104.405998 9,925 108 298 1728
2022-05-25 22:42:16 GMT 39.816593 -104.411072 9,850 110 298 1344
2022-05-25 22:42:13 GMT 39.818161 -104.416031 9,775 114 295 256
2022-05-25 22:42:10 GMT 39.820312 -104.422363 9,775 114 295 384
2022-05-25 22:42:07 GMT 39.822273 -104.427856 9,750 114 294 64
2022-05-25 22:42:04 GMT 39.823902 -104.432495 9,725 114 293 512
2022-05-25 22:42:00 GMT 39.826080 -104.438545 9,425 115 293 -64
2022-05-25 22:41:53 GMT 39.830048 -104.449585 9,675 115 293 192
2022-05-25 22:41:50 GMT 39.831490 -104.453552 9,625 115 293 576
2022-05-25 22:41:47 GMT 39.832779 -104.460808 9,400 115 292 1120
2022-05-25 22:41:46 GMT 39.833408 -104.462357 9,400 115 292 1120
2022-05-25 22:41:45 GMT 39.834030 -104.463913 9,400 115 292 1120
2022-05-25 22:41:43 GMT 39.835281 -104.467010 9,400 115 292 1120
2022-05-25 22:41:42 GMT 39.835911 -104.468567 9,400 115 292 1120
2022-05-25 22:41:40 GMT 39.837158 -104.471672 9,400 115 292 1120
2022-05-25 22:41:39 GMT 39.837791 -104.473221 9,400 115 292 1120
2022-05-25 22:41:37 GMT 39.839039 -104.476318 9,400 115 292 1120
2022-05-25 22:41:35 GMT 39.840290 -104.479431 9,400 115 292 1120
2022-05-25 22:41:34 GMT 39.840919 -104.480980 9,400 115 292 1120
2022-05-25 22:41:32 GMT 39.842171 -104.484077 9,400 115 292 512
2022-05-25 22:41:31 GMT 39.842800 -104.485626 9,400 115 292 512
2022-05-25 22:41:29 GMT 39.844051 -104.488731 9,400 115 292 512
2022-05-25 22:41:28 GMT 39.844669 -104.490288 9,400 115 292 512
2022-05-25 22:41:27 GMT 39.845299 -104.491837 9,400 115 292 512
2022-05-25 22:41:26 GMT 39.845928 -104.493393 9,400 115 292 512
2022-05-25 22:41:24 GMT 39.847179 -104.496490 9,400 115 292 512
2022-05-25 22:41:21 GMT 39.849049 -104.501152 9,400 115 292 512
2022-05-25 22:41:20 GMT 39.849682 -104.502701 9,400 115 292 512
2022-05-25 22:41:19 GMT 39.850929 -104.505814 9,400 115 292 512
2022-05-25 22:41:17 GMT 39.851559 -104.507362 9,400 115 292 512
2022-05-25 22:41:16 GMT 39.852699 -104.508621 9,300 111 293 512
2022-05-25 22:41:15 GMT 39.853790 -104.511848 9,300 111 293 512
2022-05-25 22:41:13 GMT 39.854328 -104.513458 9,300 111 293 512
2022-05-25 22:41:11 GMT 39.855228 -104.516571 9,200 108 295 0
2022-05-25 22:41:10 GMT 39.855701 -104.518227 9,200 108 295 0
2022-05-25 22:41:09 GMT 39.856628 -104.521568 9,200 108 295 0
2022-05-25 22:41:07 GMT 39.858700 -104.522789 9,100 104 296 768
2022-05-25 22:41:06 GMT 39.859058 -104.524498 9,100 104 296 768
2022-05-25 22:41:05 GMT 39.859779 -104.527931 9,100 104 296 768
2022-05-25 22:41:03 GMT 39.861012 -104.529709 9,100 102 289 768
2022-05-25 22:41:02 GMT 39.861290 -104.531403 9,100 102 289 768
2022-05-25 22:41:01 GMT 39.861870 -104.534790 9,100 102 289 768
2022-05-25 22:40:59 GMT 39.862160 -104.536484 9,100 102 289 768
2022-05-25 22:40:58 GMT 39.862862 -104.538048 9,100 104 288 768
2022-05-25 22:40:57 GMT 39.863152 -104.539742 9,100 104 288 768
2022-05-25 22:40:56 GMT 39.863720 -104.543121 9,100 104 288 768
2022-05-25 22:40:54 GMT 39.864010 -104.544807 9,100 104 288 768
2022-05-25 22:40:53 GMT 39.864651 -104.548187 8,800 108 284 768
2022-05-25 22:40:51 GMT 39.865002 -104.549828 8,800 108 284 768
2022-05-25 22:40:50 GMT 39.865349 -104.551468 8,800 108 284 768
2022-05-25 22:40:48 GMT 39.865551 -104.555222 8,800 114 276 768
2022-05-25 22:40:47 GMT 39.866032 -104.556763 8,800 114 276 768
2022-05-25 22:40:45 GMT 39.867001 -104.559822 8,800 114 276 768
2022-05-25 22:40:43 GMT 39.867722 -104.563072 8,800 119 277 768
2022-05-25 22:40:42 GMT 39.868919 -104.566010 8,800 119 277 768
2022-05-25 22:40:40 GMT 39.869511 -104.567482 8,800 119 277 768
2022-05-25 22:40:39 GMT 39.869740 -104.568947 8,700 123 286 768
2022-05-25 22:40:37 GMT 39.871922 -104.573257 8,700 123 286 768
2022-05-25 22:40:35 GMT 39.873360 -104.575920 8,600 125 294 768
2022-05-25 22:40:33 GMT 39.874142 -104.577370 8,600 125 294 768
2022-05-25 22:40:32 GMT 39.874870 -104.578873 8,600 126 295 512
2022-05-25 22:40:31 GMT 39.876469 -104.581787 8,500 129 293 512
2022-05-25 22:40:29 GMT 39.877300 -104.583199 8,500 131 293 512
2022-05-25 22:40:28 GMT 39.878109 -104.584579 8,500 134 295 512
2022-05-25 22:40:26 GMT 39.879951 -104.587212 8,500 136 295 512
2022-05-25 22:40:25 GMT 39.880939 -104.588387 8,425 136 296 512
2022-05-25 22:40:23 GMT 39.882919 -104.590919 8,300 140 293 512
2022-05-25 22:40:22 GMT 39.883881 -104.592201 8,300 142 292 512
2022-05-25 22:40:20 GMT 39.886009 -104.594437 8,100 145 290 512
2022-05-25 22:40:19 GMT 39.887051 -104.595558 8,100 146 291 512
2022-05-25 22:40:18 GMT 39.888130 -104.596611 8,100 147 292 512
2022-05-25 22:40:16 GMT 39.890259 -104.598679 7,825 148 298 512
2022-05-25 22:40:15 GMT 39.891441 -104.599586 7,825 148 298 512
2022-05-25 22:40:13 GMT 39.893799 -104.601540 7,825 145 293 512
2022-05-25 22:40:12 GMT 39.894901 -104.602493 7,825 144 296 512
2022-05-25 22:40:11 GMT 39.897141 -104.604530 7,700 141 297 512
2022-05-25 22:40:09 GMT 39.898201 -104.605621 7,700 140 298 512
2022-05-25 22:40:08 GMT 39.899250 -104.606781 7,700 138 298 512
2022-05-25 22:40:06 GMT 39.901329 -104.609100 7,600 135 297 512
2022-05-25 22:40:05 GMT 39.902309 -104.610298 7,600 133 298 512
2022-05-25 22:40:03 GMT 39.904228 -104.612869 7,500 130 295 512
2022-05-25 22:40:02 GMT 39.905159 -104.614189 7,400 128 293 512
2022-05-25 22:40:01 GMT 39.906029 -104.615517 7,400 125 294 512
2022-05-25 22:39:59 GMT 39.907661 -104.618378 7,400 122 290 512
2022-05-25 22:39:57 GMT 39.909111 -104.621269 7,350 119 291 512
2022-05-25 22:39:56 GMT 39.909809 -104.622749 7,350 116 290 512
2022-05-25 22:39:54 GMT 39.911072 -104.625816 7,300 113 286 512
2022-05-25 22:39:53 GMT 39.911629 -104.627350 7,300 110 286 512
2022-05-25 22:39:51 GMT 39.912621 -104.630508 7,200 107 283 512
2022-05-25 22:39:50 GMT 39.913040 -104.632149 7,200 106 280 512
2022-05-25 22:39:48 GMT 39.913841 -104.635399 7,025 103 273 512
2022-05-25 22:39:46 GMT 39.914452 -104.638588 7,025 100 272 512
2022-05-25 22:39:45 GMT 39.914730 -104.640244 7,025 99 268 512
2022-05-25 22:39:43 GMT 39.915112 -104.643379 7,025 96 270 512
2022-05-25 22:39:42 GMT 39.915298 -104.644981 7,025 94 269 512
2022-05-25 22:39:41 GMT 39.915371 -104.646584 6,900 93 270 512
2022-05-25 22:39:39 GMT 39.915581 -104.649712 6,825 89 274 512
2022-05-25 22:39:38 GMT 39.915661 -104.651390 6,825 87 270 512
2022-05-25 22:39:37 GMT 39.915539 -104.654617 6,825 84 266 512
2022-05-25 22:39:35 GMT 39.915440 -104.656219 6,825 82 264 512
2022-05-25 22:39:34 GMT 39.915329 -104.657799 6,700 80 262 512
2022-05-25 22:39:32 GMT 39.914951 -104.660873 6,700 77 262 96
2022-05-25 22:39:31 GMT 39.914730 -104.662468 6,700 75 257 96
2022-05-25 22:39:30 GMT 39.914131 -104.665421 6,700 72 256 96
2022-05-25 22:39:28 GMT 39.913799 -104.666840 6,700 70 257 96
2022-05-25 22:39:27 GMT 39.913422 -104.668266 6,700 68 257 96
2022-05-25 22:39:25 GMT 39.912601 -104.671150 6,600 65 252 96
2022-05-25 22:39:24 GMT 39.912170 -104.672508 6,600 62 252 96
2022-05-25 22:39:23 GMT 39.911690 -104.673912 6,600 60 249 96
2022-05-25 22:39:21 GMT 39.910599 -104.676491 6,600 56 247 96
2022-05-25 22:39:20 GMT 39.910030 -104.677727 6,550 54 246 0
2022-05-25 22:39:19 GMT 39.909389 -104.678940 6,550 52 244 352
2022-05-25 22:39:18 GMT 39.908051 -104.681297 6,550 49 237 352
2022-05-25 22:39:16 GMT 39.907349 -104.682426 6,550 47 232 352
2022-05-25 22:39:15 GMT 39.905930 -104.684464 6,550 43 229 352
2022-05-25 22:39:13 GMT 39.905140 -104.685432 6,525 42 224 -1216
2022-05-25 22:39:12 GMT 39.904381 -104.686340 6,500 40 223 -1216
2022-05-25 22:39:11 GMT 39.902859 -104.688118 6,525 35 220 1824
2022-05-25 22:39:09 GMT 39.902069 -104.688904 6,250 33 219 1824
2022-05-25 22:39:08 GMT 39.901260 -104.689636 6,250 31 219 1824
2022-05-25 22:39:07 GMT 39.899529 -104.691032 6,250 26 210 1824
2022-05-25 22:39:05 GMT 39.898609 -104.691628 6,250 24 203 1824
2022-05-25 22:39:04 GMT 39.897781 -104.692169 6,250 22 203 1824
2022-05-25 22:39:02 GMT 39.896049 -104.693130 6,250 18 199 1824
2022-05-25 22:39:01 GMT 39.895199 -104.693527 6,250 16 199 1824
2022-05-25 22:39:00 GMT 39.893429 -104.694252 6,250 12 193 1824
2022-05-25 22:38:58 GMT 39.892578 -104.694572 6,250 9 193 1824
2022-05-25 22:38:57 GMT 39.891682 -104.694839 6,250 7 191 1824
2022-05-25 22:38:55 GMT 39.889931 -104.695168 6,125 4 189 1824
2022-05-25 22:38:54 GMT 39.889050 -104.695320 6,125 3 187 1824
2022-05-25 22:38:52 GMT 39.887329 -104.695480 5,900 2 188 1824
2022-05-25 22:38:50 GMT 39.885590 -104.695549 5,900 3 188 1824
2022-05-25 22:38:49 GMT 39.884720 -104.695618 5,900 2 185 1824
2022-05-25 22:38:47 GMT 39.882992 -104.695717 5,550 2 184 1824
2022-05-25 22:38:46 GMT 39.882130 -104.695770 5,550 1 184 1824
2022-05-25 22:38:45 GMT 39.880421 -104.695808 5,550 3 183 1824
2022-05-25 22:38:43 GMT 39.879570 -104.695877 5,550 3 181 1824
2022-05-25 22:38:42 GMT 39.878719 -104.695923 5,550 3 179 1824
2022-05-25 22:38:41 GMT 39.877892 -104.696022 5,550 1 179 1824
2022-05-25 22:38:39 GMT 39.876209 -104.696068 5,450 2 179 1824
2022-05-25 22:38:38 GMT 39.875401 -104.696121 5,450 2 178 1824
2022-05-25 22:38:37 GMT 39.873760 -104.696190 5,300 1 180 1824
2022-05-25 22:38:35 GMT 39.872929 -104.696220 5,300 1 179 1824
2022-05-25 22:38:33 GMT 39.871288 -104.696259 5,300 1 175 1824
2022-05-25 22:38:32 GMT 39.870499 -104.696320 5,300 0 176 1312
2022-05-25 22:38:30 GMT 39.868889 -104.696350 5,250 0 170 -224
2022-05-25 22:38:29 GMT 39.868080 -104.696373 5,250 0 166 -224
2022-05-25 22:38:28 GMT 39.866570 -104.696381 5,275 0 162 0
2022-05-25 22:38:26 GMT 39.865810 -104.696381 5,275 0 158 0
2022-05-25 22:38:24 GMT 39.864349 -104.696388 5,275 0 149 0
2022-05-25 22:38:23 GMT 39.863670 -104.696419 5,275 0 147 -288
2022-05-25 22:38:22 GMT 39.862289 -104.696442 5,275 0 135 -288
2022-05-25 22:38:20 GMT 39.861671 -104.696449 5,275 0 132 -288
2022-05-25 22:38:19 GMT 39.861061 -104.696472 0 0 130 -288
2022-05-25 22:38:17 GMT 39.859840 -104.696457 0 0 119 0
2022-05-25 22:38:16 GMT 39.859329 -104.696472 0 0 119 0
2022-05-25 22:38:14 GMT 39.858231 -104.696510 0 0 109 0
2022-05-25 22:38:13 GMT 39.857712 -104.696518 0 359 102 0
2022-05-25 22:38:12 GMT 39.856758 -104.696487 0 0 93 0
2022-05-25 22:38:10 GMT 39.856319 -104.696510 0 359 88 0
2022-05-25 22:38:09 GMT 39.855911 -104.696510 0 0 84 0
2022-05-25 22:38:07 GMT 39.855148 -104.696533 0 359 77 0
2022-05-25 22:38:05 GMT 39.854141 -104.696472 0 2 60 0
2022-05-25 22:38:03 GMT 39.853851 -104.696510 0 1 55 0
2022-05-25 22:38:02 GMT 39.853329 -104.696503 0 1 41 0
2022-05-25 22:38:00 GMT 39.853119 -104.696472 0 6 35 0
2022-05-25 22:37:59 GMT 39.852730 -104.696518 0 4 17 0
2022-05-25 22:37:57 GMT 39.852589 -104.696518 0 6 11 0
2022-05-25 22:37:56 GMT 39.852509 -104.696548 0 5 7 0
2022-05-25 22:37:54 GMT 39.852402 -104.696548 0 359 0 0
2022-05-25 22:37:52 GMT 39.852402 -104.696564 0 359 0 0
2022-05-25 22:37:51 GMT 39.852402 -104.696571 0 359 1 0
2022-05-25 22:37:48 GMT 39.852379 -104.696548 0 359 0 0
2022-05-25 22:37:46 GMT 39.852360 -104.696533 0 359 2 0
2022-05-25 22:37:45 GMT 39.852390 -104.696548 0 359 1 0
2022-05-25 22:37:43 GMT 39.852379 -104.696564 0 358 0 0
2022-05-25 22:37:42 GMT 39.852348 -104.696541 0 356 2 0
2022-05-25 22:37:40 GMT 39.852402 -104.696564 0 355 3 0
2022-05-25 22:37:39 GMT 39.852379 -104.696533 0 7 2 0
2022-05-25 22:37:36 GMT 39.852348 -104.696510 0 30 4 0
2022-05-25 22:37:35 GMT 39.852341 -104.696487 0 19 6 0
2022-05-25 22:37:34 GMT 39.852329 -104.696541 0 8 5 0
2022-05-25 22:37:32 GMT 39.852310 -104.696571 0 351 7 0
2022-05-25 22:37:31 GMT 39.852261 -104.696548 0 353 8 0
2022-05-25 22:37:29 GMT 39.852188 -104.696548 0 348 6 0
2022-05-25 22:37:28 GMT 39.852180 -104.696564 0 322 7 0
2022-05-25 22:37:26 GMT 39.852100 -104.696548 0 288 5 0
2022-05-25 22:37:25 GMT 39.852081 -104.696518 0 297 4 0
2022-05-25 22:37:24 GMT 39.852100 -104.696487 0 307 6 0
2022-05-25 22:37:22 GMT 39.852051 -104.696411 0 283 5 0
2022-05-25 22:37:21 GMT 39.852032 -104.696411 0 272 7 0
2022-05-25 22:37:19 GMT 39.852032 -104.696342 0 272 9 0
2022-05-25 22:37:18 GMT 39.852001 -104.696281 0 270 8 0
2022-05-25 22:37:16 GMT 39.852020 -104.696198 0 275 10 0
2022-05-25 22:37:15 GMT 39.852020 -104.696136 0 274 10 0
2022-05-25 22:37:13 GMT 39.852001 -104.696007 0 263 8 0
2022-05-25 22:37:12 GMT 39.852001 -104.695976 0 267 10 0
2022-05-25 22:37:10 GMT 39.852009 -104.695839 0 266 8 0
2022-05-25 22:37:09 GMT 39.852032 -104.695801 0 266 9 0
2022-05-25 22:37:07 GMT 39.852039 -104.695686 0 271 9 0
2022-05-25 22:37:06 GMT 39.852009 -104.695641 0 270 10 0
2022-05-25 22:37:05 GMT 39.852020 -104.695572 0 275 9 0
2022-05-25 22:37:04 GMT 39.852051 -104.695457 0 283 9 0
2022-05-25 22:37:02 GMT 39.852009 -104.695412 0 272 8 0
2022-05-25 22:37:01 GMT 39.852001 -104.695358 0 263 8 0
2022-05-25 22:37:00 GMT 39.852001 -104.695236 0 275 5 0
2022-05-25 22:36:58 GMT 39.852001 -104.695198 0 278 3 0
2022-05-25 22:36:57 GMT 39.852020 -104.695183 0 280 4 0
2022-05-25 22:36:55 GMT 39.852001 -104.695129 0 286 3 0
2022-05-25 22:36:54 GMT 39.852020 -104.695129 0 286 5 0
2022-05-25 22:36:53 GMT 39.852020 -104.695053 0 286 0 0
2022-05-25 22:36:51 GMT 39.852009 -104.695053 0 286 0 0
2022-05-25 22:36:50 GMT 39.852032 -104.695061 0 285 2 0
2022-05-25 22:36:48 GMT 39.852001 -104.695053 0 284 0 0
2022-05-25 22:36:47 GMT 39.852001 -104.695030 0 284 0 0
2022-05-25 22:36:44 GMT 39.852001 -104.695038 0 284 0 0
2022-05-25 22:36:43 GMT 39.852001 -104.695023 0 286 2 0
2022-05-25 22:36:41 GMT 39.852009 -104.695053 0 286 0 0
2022-05-25 22:36:40 GMT 39.852001 -104.695053 0 286 0 0
2022-05-25 22:36:38 GMT 39.852032 -104.695038 0 284 3 0
2022-05-25 22:36:37 GMT 39.852009 -104.695061 0 284 0 0
2022-05-25 22:36:35 GMT 39.851990 -104.695038 0 284 2 0
2022-05-25 22:36:34 GMT 39.852001 -104.695023 0 284 0 0
2022-05-25 22:36:33 GMT 39.852020 -104.695038 0 283 3 0
2022-05-25 22:36:31 GMT 39.852001 -104.695023 0 284 2 0
2022-05-25 22:36:30 GMT 39.852001 -104.695030 0 285 4 0
2022-05-25 22:36:28 GMT 39.852009 -104.694992 0 279 4 0
2022-05-25 22:36:27 GMT 39.852009 -104.694969 0 269 5 0
2022-05-25 22:36:26 GMT 39.851990 -104.694923 0 263 4 0
2022-05-25 22:36:24 GMT 39.852009 -104.694923 0 270 6 0
2022-05-25 22:36:22 GMT 39.852009 -104.694832 0 266 5 0
2022-05-25 22:36:21 GMT 39.852001 -104.694839 0 267 8 0
2022-05-25 22:36:20 GMT 39.852032 -104.694801 0 275 8 0
2022-05-25 22:36:18 GMT 39.852020 -104.694710 0 273 8 0
2022-05-25 22:36:17 GMT 39.852009 -104.694641 0 272 6 0
2022-05-25 22:36:16 GMT 39.852001 -104.694611 0 271 6 0
2022-05-25 22:36:14 GMT 39.852009 -104.694527 0 281 6 0
2022-05-25 22:36:13 GMT 39.852009 -104.694489 0 284 4 0
2022-05-25 22:36:11 GMT 39.851990 -104.694412 0 304 2 0
2022-05-25 22:36:09 GMT 39.851990 -104.694382 0 306 2 0
2022-05-25 22:36:08 GMT 39.852001 -104.694366 0 308 3 0
2022-05-25 22:36:07 GMT 39.852020 -104.694351 0 309 2 0
2022-05-25 22:36:05 GMT 39.852009 -104.694328 0 310 2 0
2022-05-25 22:36:03 GMT 39.852009 -104.694290 0 311 0 0
2022-05-25 22:36:02 GMT 39.852020 -104.694290 0 311 0 0
2022-05-25 22:36:00 GMT 39.852001 -104.694283 0 311 0 0
2022-05-25 22:35:59 GMT 39.852001 -104.694290 0 311 0 0
2022-05-25 22:35:56 GMT 39.852001 -104.694267 0 311 0 0
2022-05-25 22:35:54 GMT 39.852001 -104.694283 0 311 0 0
2022-05-25 22:35:51 GMT 39.852001 -104.694199 0 309 1 0
2022-05-25 22:35:49 GMT 39.852001 -104.694221 0 308 1 0
2022-05-25 22:35:48 GMT 39.852001 -104.694229 0 306 2 0
2022-05-25 22:35:47 GMT 39.852001 -104.694237 0 304 2 0
2022-05-25 22:35:45 GMT 39.852020 -104.694290 0 297 0 0
2022-05-25 22:35:41 GMT 39.852020 -104.694298 0 295 0 0
2022-05-25 22:35:40 GMT 39.852009 -104.694290 0 295 0 0
2022-05-25 22:35:35 GMT 39.852009 -104.694290 0 295 0 0
2022-05-25 22:35:32 GMT 39.852009 -104.694260 0 295 0 0
2022-05-25 22:35:31 GMT 39.852009 -104.694283 0 295 0 0
2022-05-25 22:35:29 GMT 39.852020 -104.694252 0 295 1 0
2022-05-25 22:35:28 GMT 39.851990 -104.694267 0 288 1 0
2022-05-25 22:35:25 GMT 39.852009 -104.694290 0 289 0 0
2022-05-25 22:35:23 GMT 39.852020 -104.694290 0 289 0 0
2022-05-25 22:35:21 GMT 39.852009 -104.694283 0 289 0 0
2022-05-25 22:35:19 GMT 39.852020 -104.694283 0 289 0 0
2022-05-25 22:35:15 GMT 39.852009 -104.694283 0 285 0 0
2022-05-25 22:35:13 GMT 39.852001 -104.694290 0 285 0 0
2022-05-25 22:35:12 GMT 39.852009 -104.694283 0 285 0 0
2022-05-25 22:35:11 GMT 39.852020 -104.694290 0 285 0 0
2022-05-25 22:35:09 GMT 39.852020 -104.694290 0 285 1 0
2022-05-25 22:35:08 GMT 39.852020 -104.694290 0 281 2 0
2022-05-25 22:35:06 GMT 39.851978 -104.694298 0 281 2 0
2022-05-25 22:35:05 GMT 39.851978 -104.694290 0 285 3 0
2022-05-25 22:35:04 GMT 39.851990 -104.694267 0 285 3 0
2022-05-25 22:35:02 GMT 39.852032 -104.694267 0 289 4 0
2022-05-25 22:35:01 GMT 39.852020 -104.694260 0 282 5 0
2022-05-25 22:34:59 GMT 39.852009 -104.694199 0 273 6 0
2022-05-25 22:34:58 GMT 39.851978 -104.694160 0 257 7 0
2022-05-25 22:34:56 GMT 39.852001 -104.694054 0 271 8 0
2022-05-25 22:34:54 GMT 39.852009 -104.694000 0 273 8 0
2022-05-25 22:34:53 GMT 39.852001 -104.693970 0 266 10 0
2022-05-25 22:34:51 GMT 39.852001 -104.693848 0 273 7 0
2022-05-25 22:34:50 GMT 39.852009 -104.693802 0 275 7 0
2022-05-25 22:34:48 GMT 39.852001 -104.693710 0 276 5 0
2022-05-25 22:34:47 GMT 39.852001 -104.693687 0 273 6 0
2022-05-25 22:34:46 GMT 39.851990 -104.693611 0 273 6 0
2022-05-25 22:34:44 GMT 39.851990 -104.693581 0 273 6 0
2022-05-25 22:34:43 GMT 39.851990 -104.693550 0 273 5 0
2022-05-25 22:34:40 GMT 39.851978 -104.693413 0 274 0 0
2022-05-25 22:34:38 GMT 39.851990 -104.693390 0 274 0 0
2022-05-25 22:34:35 GMT 39.851978 -104.693336 0 274 0 0
2022-05-25 22:34:33 GMT 39.851978 -104.693352 0 274 0 0
2022-05-25 22:34:30 GMT 39.851978 -104.693314 0 274 0 0
2022-05-25 22:34:29 GMT 39.851990 -104.693321 0 274 0 0
2022-05-25 22:34:28 GMT 39.851990 -104.693298 0 274 0 0
2022-05-25 22:34:27 GMT 39.851990 -104.693283 0 274 0 0
2022-05-25 22:34:22 GMT 39.851990 -104.693336 0 273 0 0
2022-05-25 22:34:21 GMT 39.851990 -104.693352 0 273 0 0
2022-05-25 22:34:18 GMT 39.852001 -104.693352 0 273 0 0
2022-05-25 22:34:17 GMT 39.851990 -104.693336 0 273 0 0
2022-05-25 22:34:15 GMT 39.851990 -104.693367 0 273 0 0
2022-05-25 22:34:14 GMT 39.851990 -104.693382 0 273 0 0
2022-05-25 22:34:13 GMT 39.852001 -104.693382 0 273 0 0
2022-05-25 22:34:11 GMT 39.851978 -104.693352 0 273 0 0
2022-05-25 22:34:10 GMT 39.851978 -104.693359 0 273 0 0
2022-05-25 22:34:08 GMT 39.851978 -104.693367 0 273 0 0
2022-05-25 22:34:04 GMT 39.851971 -104.693359 0 273 0 0
2022-05-25 22:34:03 GMT 39.851978 -104.693359 0 273 0 0
2022-05-25 22:34:01 GMT 39.851971 -104.693352 0 273 0 0
2022-05-25 22:34:00 GMT 39.851978 -104.693359 0 272 0 0
2022-05-25 22:33:58 GMT 39.852009 -104.693329 0 272 4 0
2022-05-25 22:33:57 GMT 39.851978 -104.693359 0 271 1 0
2022-05-25 22:33:54 GMT 39.851990 -104.693367 0 273 0 0
2022-05-25 22:33:53 GMT 39.852009 -104.693359 0 270 4 0
2022-05-25 22:33:51 GMT 39.851978 -104.693367 0 270 0 0
2022-05-25 22:33:50 GMT 39.851971 -104.693367 0 270 0 0
2022-05-25 22:33:48 GMT 39.851978 -104.693367 0 271 0 0
2022-05-25 22:33:47 GMT 39.851978 -104.693359 0 271 0 0
2022-05-25 22:33:45 GMT 39.851959 -104.693367 0 271 2 0
2022-05-25 22:33:44 GMT 39.851978 -104.693359 0 271 1 0
2022-05-25 22:33:43 GMT 39.851978 -104.693336 0 270 0 0
2022-05-25 22:33:41 GMT 39.851990 -104.693329 0 270 1 0
2022-05-25 22:33:39 GMT 39.851990 -104.693336 0 270 0 0
2022-05-25 22:33:38 GMT 39.851990 -104.693329 0 270 0 0
2022-05-25 22:33:37 GMT 39.852001 -104.693321 0 271 0 0
2022-05-25 22:33:36 GMT 39.851990 -104.693336 0 264 3 0
2022-05-25 22:33:33 GMT 39.851978 -104.693314 0 268 4 0
2022-05-25 22:33:32 GMT 39.851978 -104.693291 0 271 5 0
2022-05-25 22:33:30 GMT 39.851990 -104.693237 0 269 4 0
2022-05-25 22:33:29 GMT 39.851990 -104.693222 0 272 10 0
2022-05-25 22:33:27 GMT 39.852001 -104.693161 0 274 10 0
2022-05-25 22:33:26 GMT 39.851990 -104.693092 0 271 8 0
2022-05-25 22:33:24 GMT 39.851978 -104.692993 0 274 6 0
2022-05-25 22:33:23 GMT 39.851978 -104.692947 0 272 6 0
2022-05-25 22:33:21 GMT 39.851978 -104.692902 0 279 8 0
2022-05-25 22:33:20 GMT 39.851990 -104.692848 0 275 9 0
2022-05-25 22:33:19 GMT 39.851959 -104.692787 0 266 8 0
2022-05-25 22:33:17 GMT 39.851959 -104.692680 0 260 5 0
2022-05-25 22:33:16 GMT 39.851959 -104.692619 0 262 3 0
2022-05-25 22:33:12 GMT 39.851978 -104.692520 0 262 0 0
2022-05-25 22:33:09 GMT 39.851952 -104.692490 0 261 0 0
2022-05-25 22:33:07 GMT 39.851959 -104.692497 0 261 0 0
2022-05-25 22:33:06 GMT 39.851952 -104.692497 0 261 0 0
2022-05-25 22:33:05 GMT 39.851952 -104.692490 0 261 0 0
2022-05-25 22:33:04 GMT 39.851959 -104.692497 0 263 0 0
2022-05-25 22:32:59 GMT 39.851959 -104.692497 0 263 0 0
2022-05-25 22:32:57 GMT 39.851959 -104.692490 0 263 0 0
2022-05-25 22:32:55 GMT 39.851971 -104.692467 0 263 0 0
2022-05-25 22:32:54 GMT 39.851971 -104.692482 0 263 1 0
2022-05-25 22:32:50 GMT 39.851952 -104.692482 0 263 0 0
2022-05-25 22:32:49 GMT 39.851959 -104.692459 0 261 2 0
2022-05-25 22:32:48 GMT 39.851952 -104.692482 0 261 0 0
2022-05-25 22:32:46 GMT 39.851940 -104.692482 0 261 1 0
2022-05-25 22:32:45 GMT 39.851940 -104.692467 0 262 1 0
2022-05-25 22:32:44 GMT 39.851952 -104.692513 0 265 2 0
2022-05-25 22:32:42 GMT 39.851940 -104.692497 0 271 4 0
2022-05-25 22:32:41 GMT 39.851971 -104.692451 0 276 2 0
2022-05-25 22:32:39 GMT 39.851978 -104.692436 0 275 2 0
2022-05-25 22:32:37 GMT 39.851952 -104.692451 0 273 4 0
2022-05-25 22:32:36 GMT 39.851971 -104.692459 0 277 8 0
2022-05-25 22:32:34 GMT 39.851971 -104.692368 0 273 6 0
2022-05-25 22:32:33 GMT 39.851952 -104.692299 0 261 7 0
2022-05-25 22:32:31 GMT 39.851959 -104.692253 0 265 7 0
2022-05-25 22:32:30 GMT 39.851971 -104.692207 0 272 7 0
2022-05-25 22:32:28 GMT 39.851978 -104.692139 0 277 9 0
2022-05-25 22:32:27 GMT 39.851971 -104.692093 0 273 9 0
2022-05-25 22:32:26 GMT 39.851952 -104.691994 0 269 9 0
2022-05-25 22:32:24 GMT 39.851959 -104.691940 0 271 9 0
2022-05-25 22:32:22 GMT 39.851959 -104.691818 0 270 8 0
2022-05-25 22:32:21 GMT 39.851940 -104.691757 0 268 7 0
2022-05-25 22:32:19 GMT 39.851952 -104.691658 0 270 6 0
2022-05-25 22:32:18 GMT 39.851959 -104.691650 0 272 9 0
2022-05-25 22:32:16 GMT 39.851940 -104.691589 0 269 13 0
2022-05-25 22:32:15 GMT 39.851959 -104.691467 0 268 10 0
2022-05-25 22:32:14 GMT 39.851910 -104.691406 0 255 10 0
2022-05-25 22:32:13 GMT 39.851971 -104.691277 0 276 8 0
2022-05-25 22:32:11 GMT 39.851959 -104.691223 0 277 7 0
2022-05-25 22:32:09 GMT 39.851952 -104.691147 0 270 11 0
2022-05-25 22:32:08 GMT 39.851940 -104.691093 0 268 12 0
2022-05-25 22:32:07 GMT 39.851952 -104.691017 0 269 12 0
2022-05-25 22:32:06 GMT 39.851952 -104.690880 0 272 13 0
2022-05-25 22:32:04 GMT 39.851959 -104.690781 0 273 10 0
2022-05-25 22:32:03 GMT 39.851921 -104.690697 0 257 9 0
2022-05-25 22:32:01 GMT 39.851971 -104.690628 0 275 14 0
2022-05-25 22:32:00 GMT 39.851952 -104.690552 0 270 14 0
2022-05-25 22:31:58 GMT 39.851959 -104.690376 0 265 13 0
2022-05-25 22:31:57 GMT 39.851929 -104.690292 0 256 11 0
2022-05-25 22:31:56 GMT 39.851929 -104.690224 0 259 11 0
2022-05-25 22:31:54 GMT 39.851971 -104.690102 0 273 13 0
2022-05-25 22:31:53 GMT 39.851971 -104.690041 0 269 14 0
2022-05-25 22:31:51 GMT 39.851959 -104.689873 0 265 14 0
2022-05-25 22:31:50 GMT 39.851978 -104.689720 0 272 13 0
2022-05-25 22:31:48 GMT 39.851971 -104.689636 0 266 12 0
2022-05-25 22:31:47 GMT 39.851971 -104.689583 0 265 13 0
2022-05-25 22:31:45 GMT 39.851971 -104.689423 0 265 14 0
2022-05-25 22:31:44 GMT 39.851971 -104.689346 0 260 15 0
2022-05-25 22:31:42 GMT 39.852009 -104.689163 0 277 12 0
2022-05-25 22:31:41 GMT 39.852009 -104.689087 0 272 12 0
2022-05-25 22:31:40 GMT 39.851978 -104.688919 0 271 10 0
2022-05-25 22:31:38 GMT 39.851971 -104.688881 0 264 14 0
2022-05-25 22:31:37 GMT 39.852001 -104.688782 0 270 13 0
2022-05-25 22:31:35 GMT 39.851978 -104.688629 0 265 14 0
2022-05-25 22:31:34 GMT 39.851990 -104.688538 0 270 13 0
2022-05-25 22:31:33 GMT 39.852001 -104.688469 0 270 14 0
2022-05-25 22:31:31 GMT 39.851990 -104.688293 0 266 10 0
2022-05-25 22:31:30 GMT 39.852009 -104.688232 0 268 10 0
2022-05-25 22:31:29 GMT 39.852020 -104.688118 0 274 11 0
2022-05-25 22:31:27 GMT 39.852001 -104.688080 0 265 13 0
2022-05-25 22:31:26 GMT 39.852001 -104.687981 0 267 10 0
2022-05-25 22:31:24 GMT 39.851990 -104.687851 0 261 9 0
2022-05-25 22:31:23 GMT 39.852020 -104.687820 0 274 10 0
2022-05-25 22:31:22 GMT 39.852020 -104.687698 0 274 9 0
2022-05-25 22:31:20 GMT 39.852032 -104.687637 0 273 8 0
2022-05-25 22:31:19 GMT 39.851990 -104.687553 0 266 7 0
2022-05-25 22:31:17 GMT 39.852020 -104.687523 0 276 8 0
2022-05-25 22:31:16 GMT 39.852032 -104.687469 0 275 8 0
2022-05-25 22:31:15 GMT 39.852001 -104.687378 0 261 11 0
2022-05-25 22:31:13 GMT 39.852001 -104.687317 0 260 10 0
2022-05-25 22:31:12 GMT 39.851978 -104.687263 0 263 11 0
2022-05-25 22:31:10 GMT 39.852020 -104.687149 0 263 9 0
2022-05-25 22:31:09 GMT 39.851990 -104.687080 0 255 9 0
2022-05-25 22:31:07 GMT 39.852051 -104.686996 0 275 11 0
2022-05-25 22:31:06 GMT 39.852039 -104.686913 0 277 9 0
2022-05-25 22:31:04 GMT 39.852032 -104.686813 0 270 11 0
2022-05-25 22:31:03 GMT 39.852032 -104.686737 0 278 10 0
2022-05-25 22:31:01 GMT 39.852020 -104.686653 0 265 12 0
2022-05-25 22:31:00 GMT 39.852020 -104.686501 0 269 10 0
2022-05-25 22:30:58 GMT 39.852039 -104.686440 0 270 10 0
2022-05-25 22:30:57 GMT 39.852009 -104.686317 0 261 13 0
2022-05-25 22:30:55 GMT 39.852039 -104.686241 0 269 12 0
2022-05-25 22:30:54 GMT 39.852051 -104.686180 0 269 13 0
2022-05-25 22:30:53 GMT 39.852051 -104.686028 0 271 14 0
2022-05-25 22:30:51 GMT 39.852039 -104.685944 0 268 13 0
2022-05-25 22:30:50 GMT 39.852051 -104.685791 0 273 10 0
2022-05-25 22:30:49 GMT 39.852051 -104.685738 0 270 12 0
2022-05-25 22:30:47 GMT 39.852039 -104.685677 0 268 13 0
2022-05-25 22:30:46 GMT 39.852039 -104.685577 0 262 11 0
2022-05-25 22:30:44 GMT 39.852051 -104.685471 0 271 13 0
2022-05-25 22:30:43 GMT 39.852058 -104.685371 0 273 11 0
2022-05-25 22:30:41 GMT 39.852051 -104.685249 0 269 13 0
2022-05-25 22:30:40 GMT 39.852058 -104.685188 0 273 14 0
2022-05-25 22:30:39 GMT 39.852051 -104.684998 0 279 11 0
2022-05-25 22:30:37 GMT 39.852032 -104.684937 0 275 11 0
2022-05-25 22:30:36 GMT 39.852032 -104.684883 0 278 12 0
2022-05-25 22:30:35 GMT 39.852032 -104.684738 0 280 13 0
2022-05-25 22:30:33 GMT 39.852009 -104.684692 0 273 14 0
2022-05-25 22:30:31 GMT 39.851971 -104.684486 0 241 12 0
2022-05-25 22:30:30 GMT 39.851990 -104.684441 0 238 13 0
2022-05-25 22:30:29 GMT 39.852020 -104.684349 0 238 11 0
2022-05-25 22:30:28 GMT 39.852051 -104.684227 0 214 12 0
2022-05-25 22:30:26 GMT 39.852100 -104.684174 0 210 10 0
2022-05-25 22:30:25 GMT 39.852131 -104.684143 0 206 11 0
2022-05-25 22:30:23 GMT 39.852219 -104.684067 0 196 11 0
2022-05-25 22:30:22 GMT 39.852268 -104.684036 0 195 12 0
2022-05-25 22:30:21 GMT 39.852360 -104.683983 0 177 14 0
2022-05-25 22:30:19 GMT 39.852428 -104.684021 0 187 14 0
2022-05-25 22:30:18 GMT 39.852489 -104.683968 0 173 14 0
2022-05-25 22:30:16 GMT 39.852619 -104.684013 0 184 16 0
2022-05-25 22:30:15 GMT 39.852680 -104.684013 0 186 18 0
2022-05-25 22:30:14 GMT 39.852871 -104.683952 0 169 14 0
2022-05-25 22:30:12 GMT 39.852940 -104.683998 0 181 13 0
2022-05-25 22:30:11 GMT 39.852982 -104.683998 0 183 16 0
2022-05-25 22:30:09 GMT 39.853142 -104.683998 0 185 16 0
2022-05-25 22:30:08 GMT 39.853199 -104.683952 0 174 17 0
2022-05-25 22:30:06 GMT 39.853371 -104.683983 0 184 14 0
2022-05-25 22:30:05 GMT 39.853432 -104.683952 0 174 14 0
2022-05-25 22:30:03 GMT 39.853550 -104.683952 0 175 18 0
2022-05-25 22:30:02 GMT 39.853649 -104.683968 0 176 17 0
2022-05-25 22:30:01 GMT 39.853779 -104.683983 0 183 17 0
2022-05-25 22:29:59 GMT 39.853882 -104.683983 0 180 13 0
2022-05-25 22:29:58 GMT 39.853920 -104.683960 0 177 16 0
2022-05-25 22:29:56 GMT 39.854061 -104.683968 0 178 17 0
2022-05-25 22:29:55 GMT 39.854118 -104.683968 0 176 19 0
2022-05-25 22:29:53 GMT 39.854321 -104.683990 0 176 15 0
2022-05-25 22:29:52 GMT 39.854401 -104.684036 0 192 14 0
2022-05-25 22:29:51 GMT 39.854450 -104.683990 0 181 17 0
2022-05-25 22:29:49 GMT 39.854622 -104.683983 0 183 14 0
2022-05-25 22:29:47 GMT 39.854752 -104.683960 0 182 15 0
2022-05-25 22:29:46 GMT 39.854820 -104.683952 0 178 15 0
2022-05-25 22:29:45 GMT 39.854969 -104.683960 0 178 15 0
2022-05-25 22:29:43 GMT 39.855030 -104.683952 0 177 16 0
2022-05-25 22:29:42 GMT 39.855110 -104.683968 0 181 16 0
2022-05-25 22:29:40 GMT 39.855259 -104.683952 0 173 15 0
2022-05-25 22:29:39 GMT 39.855301 -104.683952 0 175 17 0
2022-05-25 22:29:37 GMT 39.855461 -104.683990 0 193 15 0
2022-05-25 22:29:36 GMT 39.855511 -104.683990 0 198 15 0
2022-05-25 22:29:35 GMT 39.855659 -104.683960 0 220 13 0
2022-05-25 22:29:33 GMT 39.855709 -104.683907 0 225 12 0
2022-05-25 22:29:32 GMT 39.855789 -104.683861 0 237 14 0
2022-05-25 22:29:30 GMT 39.855839 -104.683769 0 242 12 0
2022-05-25 22:29:28 GMT 39.855911 -104.683617 0 253 7 0
2022-05-25 22:29:27 GMT 39.855930 -104.683578 0 257 7 0
2022-05-25 22:29:26 GMT 39.855961 -104.683502 0 268 7 0
2022-05-25 22:29:24 GMT 39.855961 -104.683449 0 270 7 0
2022-05-25 22:29:23 GMT 39.855961 -104.683357 0 277 6 0
2022-05-25 22:29:21 GMT 39.855968 -104.683319 0 296 5 0
2022-05-25 22:29:20 GMT 39.855961 -104.683296 0 332 7 0
2022-05-25 22:29:19 GMT 39.855991 -104.683189 0 350 2 0
2022-05-25 22:29:17 GMT 39.855980 -104.683197 0 351 2 0
2022-05-25 22:29:16 GMT 39.855968 -104.683159 0 353 1 0
2022-05-25 22:29:13 GMT 39.855968 -104.683182 0 357 2 0
2022-05-25 22:29:11 GMT 39.855961 -104.683167 0 358 2 0
2022-05-25 22:29:10 GMT 39.855980 -104.683167 0 3 3 0
2022-05-25 22:29:09 GMT 39.855968 -104.683121 0 3 0 0
2022-05-25 22:29:07 GMT 39.855968 -104.683113 0 357 1 0
2022-05-25 22:29:06 GMT 39.855968 -104.683098 0 352 4 0
2022-05-25 22:29:04 GMT 39.855968 -104.683151 0 287 0 0
2022-05-25 22:29:03 GMT 39.855980 -104.683182 0 287 2 0
2022-05-25 22:29:01 GMT 39.855968 -104.683182 0 279 5 0
2022-05-25 22:29:00 GMT 39.855980 -104.683128 0 279 3 0
2022-05-25 22:28:59 GMT 39.855961 -104.683121 0 264 6 0
2022-05-25 22:28:57 GMT 39.855942 -104.683067 0 257 6 0
2022-05-25 22:28:55 GMT 39.855991 -104.682991 0 282 5 0
2022-05-25 22:28:54 GMT 39.855961 -104.682953 0 272 7 0
2022-05-25 22:28:52 GMT 39.855980 -104.682922 0 276 9 0
2022-05-25 22:28:50 GMT 39.855961 -104.682831 0 271 10 0
2022-05-25 22:28:49 GMT 39.855961 -104.682716 0 270 10 0
2022-05-25 22:28:48 GMT 39.855942 -104.682640 0 267 9 0
2022-05-25 22:28:46 GMT 39.855968 -104.682602 0 272 10 0
2022-05-25 22:28:45 GMT 39.855949 -104.682564 0 266 12 0
2022-05-25 22:28:43 GMT 39.855980 -104.682426 0 272 12 0
2022-05-25 22:28:42 GMT 39.855980 -104.682358 0 268 12 0
2022-05-25 22:28:40 GMT 39.855961 -104.682213 0 272 13 0
2022-05-25 22:28:39 GMT 39.855980 -104.682137 0 275 14 0
2022-05-25 22:28:38 GMT 39.855968 -104.681976 0 274 14 0
2022-05-25 22:28:36 GMT 39.855980 -104.681908 0 277 14 0
2022-05-25 22:28:35 GMT 39.855942 -104.681747 0 267 14 0
2022-05-25 22:28:33 GMT 39.855961 -104.681679 0 272 15 0
2022-05-25 22:28:31 GMT 39.855961 -104.681488 0 272 13 0
2022-05-25 22:28:30 GMT 39.855961 -104.681419 0 273 14 0
2022-05-25 22:28:29 GMT 39.855942 -104.681343 0 269 14 0
2022-05-25 22:28:28 GMT 39.855942 -104.681198 0 269 16 0
2022-05-25 22:28:26 GMT 39.855961 -104.681107 0 272 16 0
2022-05-25 22:28:24 GMT 39.855949 -104.680901 0 270 14 0
2022-05-25 22:28:23 GMT 39.855930 -104.680801 0 268 12 0
2022-05-25 22:28:22 GMT 39.855930 -104.680740 0 269 13 0
2022-05-25 22:28:20 GMT 39.855949 -104.680618 0 272 17 0
2022-05-25 22:28:19 GMT 39.855930 -104.680473 0 268 14 0
2022-05-25 22:28:18 GMT 39.855930 -104.680298 0 258 13 0
2022-05-25 22:28:16 GMT 39.855919 -104.680237 0 255 15 0
2022-05-25 22:28:15 GMT 39.855930 -104.680107 0 259 12 0
2022-05-25 22:28:13 GMT 39.856010 -104.680031 0 271 16 0
2022-05-25 22:28:12 GMT 39.855991 -104.679932 0 268 16 0
2022-05-25 22:28:10 GMT 39.855999 -104.679741 0 269 15 0
2022-05-25 22:28:09 GMT 39.855999 -104.679649 0 272 15 0
2022-05-25 22:28:07 GMT 39.855999 -104.679466 0 271 16 0
2022-05-25 22:28:06 GMT 39.855980 -104.679367 0 269 15 0
2022-05-25 22:28:05 GMT 39.855991 -104.679283 0 271 15 0
2022-05-25 22:28:03 GMT 39.855999 -104.679108 0 272 16 0
2022-05-25 22:28:02 GMT 39.855991 -104.679024 0 268 16 0
2022-05-25 22:28:01 GMT 39.855949 -104.678879 0 263 14 0
2022-05-25 22:27:59 GMT 39.855991 -104.678719 0 271 13 0
2022-05-25 22:27:58 GMT 39.855991 -104.678650 0 270 14 0
2022-05-25 22:27:57 GMT 39.855991 -104.678543 0 271 14 0
2022-05-25 22:27:55 GMT 39.856010 -104.678360 0 271 14 0
2022-05-25 22:27:54 GMT 39.856022 -104.678223 0 274 14 0
2022-05-25 22:27:52 GMT 39.856022 -104.678139 0 276 14 0
2022-05-25 22:27:51 GMT 39.856010 -104.678062 0 275 14 0
2022-05-25 22:27:49 GMT 39.856022 -104.677879 0 283 13 0
2022-05-25 22:27:48 GMT 39.855968 -104.677757 0 282 12 0
2022-05-25 22:27:47 GMT 39.855949 -104.677620 0 284 12 0
2022-05-25 22:27:45 GMT 39.855961 -104.677551 0 288 14 0
2022-05-25 22:27:44 GMT 39.855850 -104.677383 0 257 12 0
2022-05-25 22:27:42 GMT 39.855862 -104.677307 0 256 12 0
2022-05-25 22:27:40 GMT 39.855862 -104.677101 0 254 9 0
2022-05-25 22:27:39 GMT 39.855881 -104.677048 0 256 9 0
2022-05-25 22:27:38 GMT 39.855900 -104.677032 0 257 12 0
2022-05-25 22:27:36 GMT 39.855930 -104.676811 0 240 10 0
2022-05-25 22:27:35 GMT 39.855930 -104.676750 0 233 10 0
2022-05-25 22:27:33 GMT 39.855942 -104.676559 0 212 8 0
2022-05-25 22:27:32 GMT 39.855919 -104.676483 0 200 8 32
2022-05-25 22:27:31 GMT 39.855888 -104.676353 0 196 10 32
2022-05-25 22:27:29 GMT 39.855911 -104.676270 0 193 12 32
2022-05-25 22:26:15 GMT 39.856560 -104.670303 0 0 1
2022-05-25 22:26:13 GMT 39.856571 -104.670280 0 0 1
2022-05-25 22:25:00 GMT 39.855919 -104.671562 0 271 16
2022-05-25 22:24:59 GMT 39.855911 -104.671371 0 271 16
2022-05-25 22:24:58 GMT 39.855911 -104.671310 0 271 17
2022-05-25 22:24:55 GMT 39.855900 -104.671112 0 270 17
2022-05-25 22:24:53 GMT 39.855869 -104.670914 0 265 17
2022-05-25 22:24:52 GMT 39.855888 -104.670708 0 266 17
2022-05-25 22:24:50 GMT 39.855888 -104.670532 0 265 17
2022-05-25 22:24:49 GMT 39.855888 -104.670349 0 265 17
2022-05-25 22:24:47 GMT 39.855900 -104.670250 0 265 17
2022-05-25 22:24:46 GMT 39.855911 -104.670158 0 266 17
2022-05-25 22:24:45 GMT 39.855919 -104.669960 0 270 18
2022-05-25 22:24:43 GMT 39.855949 -104.669861 0 274 19
2022-05-25 22:24:42 GMT 39.855930 -104.669762 0 274 19
2022-05-25 22:24:41 GMT 39.855930 -104.669518 0 276 18
2022-05-25 22:24:39 GMT 39.855900 -104.669411 0 270 18
2022-05-25 22:24:38 GMT 39.855919 -104.669312 0 274 18
2022-05-25 22:24:36 GMT 39.855900 -104.669098 0 272 19
2022-05-25 22:24:35 GMT 39.855881 -104.668854 0 269 18
2022-05-25 22:24:33 GMT 39.855881 -104.668739 0 270 18
2022-05-25 22:24:32 GMT 39.855888 -104.668518 0 273 18
2022-05-25 22:24:31 GMT 39.855869 -104.668427 0 269 19
2022-05-25 22:24:29 GMT 39.855900 -104.668182 0 277 18
2022-05-25 22:24:28 GMT 39.855888 -104.668098 0 275 20
2022-05-25 22:24:26 GMT 39.855869 -104.667976 0 269 19
2022-05-25 22:24:25 GMT 39.855862 -104.667717 0 260 17
2022-05-25 22:24:23 GMT 39.855869 -104.667633 0 262 18
2022-05-25 22:24:22 GMT 39.855881 -104.667503 0 256 16
2022-05-25 22:24:21 GMT 39.855869 -104.667419 0 251 19
2022-05-25 22:24:19 GMT 39.855919 -104.667229 0 246 18
2022-05-25 22:24:18 GMT 39.855942 -104.667099 0 236 16
2022-05-25 22:24:16 GMT 39.856022 -104.666924 0 227 13
2022-05-25 22:24:15 GMT 39.856060 -104.666862 0 222 13
2022-05-25 22:24:14 GMT 39.856140 -104.666748 0 222 15
2022-05-25 22:24:12 GMT 39.856201 -104.666672 0 215 11
2022-05-25 22:24:11 GMT 39.856239 -104.666611 0 214 12
2022-05-25 22:24:09 GMT 39.856331 -104.666496 0 200 9
2022-05-25 22:24:08 GMT 39.856361 -104.666473 0 197 10
2022-05-25 22:24:07 GMT 39.856468 -104.666420 0 192 7
2022-05-25 22:24:05 GMT 39.856499 -104.666397 0 191 8
2022-05-25 22:24:04 GMT 39.856529 -104.666397 0 185 9
2022-05-25 22:24:02 GMT 39.856640 -104.666351 0 177 4
2022-05-25 22:24:01 GMT 39.856670 -104.666382 0 173 4
2022-05-25 22:24:00 GMT 39.856750 -104.666344 0 165 3
2022-05-25 22:23:58 GMT 39.856880 -104.666328 0 158 1
2022-05-25 22:23:57 GMT 39.856892 -104.666351 0 157 1
2022-05-25 22:23:54 GMT 39.856991 -104.666351 0 156 0
2022-05-25 22:23:53 GMT 39.856949 -104.666344 0 156 0
2022-05-25 22:23:51 GMT 39.856949 -104.666328 0 156 0
2022-05-25 22:23:50 GMT 39.856941 -104.666321 0 156 0
2022-05-25 22:23:47 GMT 39.856930 -104.666321 0 156 0
2022-05-25 22:23:42 GMT 39.856941 -104.666351 0 156 0
2022-05-25 22:23:41 GMT 39.856949 -104.666351 0 153 0
2022-05-25 22:23:40 GMT 39.856949 -104.666344 0 153 0
2022-05-25 22:23:39 GMT 39.856941 -104.666328 0 153 0
2022-05-25 22:23:37 GMT 39.856930 -104.666328 0 153 0
2022-05-25 22:23:34 GMT 39.856918 -104.666328 0 153 0
2022-05-25 22:23:32 GMT 39.856911 -104.666328 0 153 0
2022-05-25 22:23:28 GMT 39.856911 -104.666351 0 153 0
2022-05-25 22:23:27 GMT 39.856899 -104.666351 0 153 0
2022-05-25 22:23:24 GMT 39.856911 -104.666313 0 153 0
2022-05-25 22:23:23 GMT 39.856918 -104.666321 0 153 0
2022-05-25 22:23:20 GMT 39.856918 -104.666328 0 153 0
2022-05-25 22:23:19 GMT 39.856918 -104.666321 0 153 0
2022-05-25 22:23:15 GMT 39.856911 -104.666321 0 153 0
2022-05-25 22:23:12 GMT 39.856918 -104.666321 0 154 0
2022-05-25 22:23:11 GMT 39.856911 -104.666321 0 154 0
2022-05-25 22:23:06 GMT 39.856911 -104.666321 0 152 0
2022-05-25 22:23:04 GMT 39.856911 -104.666328 0 152 0
2022-05-25 22:23:03 GMT 39.856911 -104.666344 0 156 0
2022-05-25 22:23:00 GMT 39.856911 -104.666328 0 156 0
2022-05-25 22:22:59 GMT 39.856911 -104.666344 0 154 0
2022-05-25 22:22:58 GMT 39.856911 -104.666328 0 154 0
2022-05-25 22:22:55 GMT 39.856911 -104.666321 0 154 1
2022-05-25 22:22:54 GMT 39.856892 -104.666328 0 153 2
2022-05-25 22:22:52 GMT 39.856899 -104.666328 0 152 2
2022-05-25 22:22:51 GMT 39.856911 -104.666321 0 151 2
2022-05-25 22:22:49 GMT 39.856918 -104.666313 0 150 3
2022-05-25 22:22:48 GMT 39.856930 -104.666328 0 160 4
2022-05-25 22:22:46 GMT 39.856941 -104.666351 0 160 4
2022-05-25 22:22:45 GMT 39.856941 -104.666382 0 152 5
2022-05-25 22:22:44 GMT 39.857029 -104.666313 0 119 3
2022-05-25 22:22:42 GMT 39.857040 -104.666321 0 118 3
2022-05-25 22:22:41 GMT 39.856998 -104.666153 0 116 5
2022-05-25 22:22:39 GMT 39.857021 -104.666168 0 88 4
2022-05-25 22:22:38 GMT 39.856991 -104.666092 0 84 4
2022-05-25 22:22:36 GMT 39.857052 -104.666023 0 62 4
2022-05-25 22:22:34 GMT 39.857151 -104.666191 0 62 0
2022-05-25 22:22:33 GMT 39.857140 -104.666199 0 63 1
2022-05-25 22:22:32 GMT 39.857101 -104.666191 0 64 0
2022-05-25 22:22:31 GMT 39.857101 -104.666199 0 64 0
2022-05-25 22:22:29 GMT 39.857109 -104.666206 0 64 0
2022-05-25 22:22:28 GMT 39.857109 -104.666222 0 64 0
2022-05-25 22:22:25 GMT 39.857090 -104.666206 0 65 0
2022-05-25 22:22:23 GMT 39.857079 -104.666206 0 65 0
2022-05-25 22:22:22 GMT 39.857101 -104.666199 0 65 0
2022-05-25 22:22:21 GMT 39.857121 -104.666199 0 65 0
2022-05-25 22:22:18 GMT 39.857151 -104.666191 0 65 0
2022-05-25 22:22:17 GMT 39.857140 -104.666161 0 65 0
2022-05-25 22:22:15 GMT 39.857151 -104.666153 0 65 0
2022-05-25 22:22:13 GMT 39.857159 -104.666153 0 65 0
2022-05-25 22:22:12 GMT 39.857170 -104.666183 0 65 0
2022-05-25 22:22:09 GMT 39.857109 -104.666206 0 64 0
2022-05-25 22:22:08 GMT 39.857101 -104.666229 0 64 0
2022-05-25 22:22:07 GMT 39.857121 -104.666191 0 64 0
2022-05-25 22:22:05 GMT 39.857140 -104.666191 0 64 0
2022-05-25 22:22:04 GMT 39.857151 -104.666183 0 63 0
2022-05-25 22:22:02 GMT 39.857128 -104.666191 0 62 0
2022-05-25 22:22:01 GMT 39.857140 -104.666199 0 62 0
2022-05-25 22:21:59 GMT 39.857151 -104.666191 0 62 0
2022-05-25 22:21:57 GMT 39.857101 -104.666199 0 62 0
2022-05-25 22:21:56 GMT 39.857059 -104.666206 0 62 0
2022-05-25 22:21:55 GMT 39.857071 -104.666222 0 62 0
2022-05-25 22:21:53 GMT 39.857090 -104.666206 0 61 0
2022-05-25 22:21:52 GMT 39.857109 -104.666199 0 61 0
2022-05-25 22:21:51 GMT 39.857128 -104.666199 0 59 0
2022-05-25 22:21:50 GMT 39.857159 -104.666191 0 55 0
2022-05-25 22:21:47 GMT 39.857159 -104.666191 0 54 0
2022-05-25 22:21:45 GMT 39.857170 -104.666168 0 50 0
2022-05-25 22:21:42 GMT 39.857182 -104.666168 0 50 0
2022-05-25 22:21:41 GMT 39.857151 -104.666199 0 50 0
2022-05-25 22:21:39 GMT 39.857159 -104.666199 0 50 0
2022-05-25 22:21:37 GMT 39.857151 -104.666199 0 50 0
2022-05-25 22:21:36 GMT 39.857140 -104.666191 0 50 0
2022-05-25 22:21:35 GMT 39.857182 -104.666168 0 50 0
2022-05-25 22:21:33 GMT 39.857182 -104.666168 0 50 0
2022-05-25 22:21:32 GMT 39.857159 -104.666161 0 50 0
2022-05-25 22:21:30 GMT 39.857121 -104.666206 0 50 0
2022-05-25 22:21:29 GMT 39.857109 -104.666191 0 50 0
2022-05-25 22:21:28 GMT 39.857121 -104.666183 0 51 0
2022-05-25 22:21:25 GMT 39.857071 -104.666206 0 46 0
2022-05-25 22:21:23 GMT 39.857101 -104.666206 0 43 0
2022-05-25 22:21:22 GMT 39.857151 -104.666199 0 38 0
2022-05-25 22:21:20 GMT 39.857182 -104.666191 0 36 0
2022-05-25 22:21:18 GMT 39.857201 -104.666191 0 35 0
2022-05-25 22:21:17 GMT 39.857208 -104.666191 0 35 0
2022-05-25 22:21:16 GMT 39.857189 -104.666130 0 34 1
2022-05-25 22:21:15 GMT 39.857182 -104.666183 0 34 0
2022-05-25 22:21:12 GMT 39.857201 -104.666183 0 34 0
2022-05-25 22:21:11 GMT 39.857189 -104.666191 0 35 1
2022-05-25 22:21:09 GMT 39.857189 -104.666191 0 35 1
2022-05-25 22:21:08 GMT 39.857159 -104.666206 0 35 0
2022-05-25 22:21:05 GMT 39.857189 -104.666138 0 35 0
2022-05-25 22:21:03 GMT 39.857182 -104.666138 0 35 0
2022-05-25 22:21:02 GMT 39.857189 -104.666138 0 35 0
2022-05-25 22:21:00 GMT 39.857109 -104.666191 0 37 0
2022-05-25 22:20:58 GMT 39.857109 -104.666191 0 37 0
2022-05-25 22:20:52 GMT 39.857071 -104.666222 0 37 0
2022-05-25 22:20:51 GMT 39.857079 -104.666206 0 37 0
2022-05-25 22:20:50 GMT 39.857101 -104.666206 0 37 0
2022-05-25 22:20:47 GMT 39.857121 -104.666191 0 37 0
2022-05-25 22:20:45 GMT 39.857140 -104.666183 0 37 0
2022-05-25 22:20:43 GMT 39.857140 -104.666168 0 35 0
2022-05-25 22:20:42 GMT 39.857140 -104.666199 0 35 0
2022-05-25 22:20:41 GMT 39.857140 -104.666183 0 34 0
2022-05-25 22:20:40 GMT 39.857170 -104.666168 0 31 0
2022-05-25 22:20:37 GMT 39.857189 -104.666161 0 27 0
2022-05-25 22:20:34 GMT 39.857170 -104.666168 0 27 0
2022-05-25 22:20:33 GMT 39.857182 -104.666168 0 27 0
2022-05-25 22:20:31 GMT 39.857170 -104.666168 0 27 1
2022-05-25 22:20:30 GMT 39.857182 -104.666168 0 27 1
2022-05-25 22:20:29 GMT 39.857182 -104.666183 0 27 1
2022-05-25 22:20:28 GMT 39.857189 -104.666191 0 27 1
2022-05-25 22:20:25 GMT 39.857182 -104.666183 0 27 0
2022-05-25 22:20:24 GMT 39.857170 -104.666199 0 27 0
2022-05-25 22:20:22 GMT 39.857159 -104.666206 0 31 1
2022-05-25 22:20:21 GMT 39.857170 -104.666199 0 38 0
2022-05-25 22:20:19 GMT 39.857170 -104.666199 0 39 0
2022-05-25 22:20:18 GMT 39.857170 -104.666191 0 44 0
2022-05-25 22:20:16 GMT 39.857182 -104.666191 0 43 1
2022-05-25 22:20:15 GMT 39.857170 -104.666206 0 49 1
2022-05-25 22:20:13 GMT 39.857170 -104.666199 0 54 1
2022-05-25 22:20:12 GMT 39.857159 -104.666168 0 52 1
2022-05-25 22:20:10 GMT 39.857170 -104.666161 0 51 2
2022-05-25 22:20:09 GMT 39.857201 -104.666191 0 51 3
2022-05-25 22:20:07 GMT 39.857189 -104.666183 0 52 4
2022-05-25 22:20:06 GMT 39.857189 -104.666161 0 54 5
2022-05-25 22:20:05 GMT 39.857262 -104.666100 0 49 17
2022-05-25 22:20:03 GMT 39.857288 -104.665947 0 51 27
2022-05-25 22:20:02 GMT 39.857079 -104.666367 0 30 25

Making use of Plane Finder data

You are free to use the raw flight data, aircraft information and images provided in this report for your own purposes provided the data is correctly attributed to Plane Finder. We ask that you please credit Plane Finder and link to planefinder.net in close proximity to the content.

Optionally one of the following logos (no smaller then 150x24px) can be used and must link to planefinder.net

Embedding the Plane Finder map

You are welcome to embed the Plane Finder playback map on your website to offer visitors a more interactive experience. We suggest using the following HTML code:

<iframe src="//planefinder.net/data/report/UA4323-N14188-7700-squawk-2022-05-25/map" width="800" height="600" seamless="seamless"></iframe>

Where our data comes from

Plane Finder has a global network of data feeds and antenna radars that receive data broadcast directly from aircraft. The primary technologies used are ADS-B and MLAT. We also show feeds from the FAA and a FLARM glider feed.

Click here to find out more about the Plane Finder network.

How we collect our data